<?xml version="1.0" encoding="UTF-8"?>
<gpx
 version="1.0"
creator="GPSBabel - http://www.gpsbabel.org"
xmlns:xsi="http://www.w3.org/2001/XMLSchema-instance"
xmlns="http://www.topografix.com/GPX/1/0"
xsi:schemaLocation="http://www.topografix.com/GPX/1/0 http://www.topografix.com/GPX/1/0/gpx.xsd">
<time>2016-06-26T07:34:41Z</time>
<bounds minlat="44.706981570" minlon="6.638961670" maxlat="44.727933480" maxlon="6.652398370"/>
<trk>
<trkseg>
<trkpt lat="44.707333440" lon="6.640708460">
  <ele>1576.400024</ele>
<time>2016-06-25T13:48:18Z</time>
</trkpt>
<trkpt lat="44.707276780" lon="6.640776690">
  <ele>1563.199951</ele>
<time>2016-06-25T13:48:48Z</time>
</trkpt>
<trkpt lat="44.707268400" lon="6.640800160">
  <ele>1562.400024</ele>
<time>2016-06-25T13:48:49Z</time>
</trkpt>
<trkpt lat="44.706981570" lon="6.640649950">
  <ele>1571.000000</ele>
<time>2016-06-25T13:49:06Z</time>
</trkpt>
<trkpt lat="44.707070080" lon="6.640633360">
  <ele>1570.100000</ele>
<time>2016-06-25T13:49:57Z</time>
</trkpt>
<trkpt lat="44.707071760" lon="6.640645090">
  <ele>1570.000000</ele>
<time>2016-06-25T13:49:58Z</time>
</trkpt>
<trkpt lat="44.707065050" lon="6.640870060">
  <ele>1571.000000</ele>
<time>2016-06-25T13:50:14Z</time>
</trkpt>
<trkpt lat="44.707151720" lon="6.640893360">
  <ele>1571.900000</ele>
<time>2016-06-25T13:51:18Z</time>
</trkpt>
<trkpt lat="44.707188430" lon="6.640930080">
  <ele>1573.100000</ele>
<time>2016-06-25T13:51:19Z</time>
</trkpt>
<trkpt lat="44.707291700" lon="6.641028480">
  <ele>1573.900000</ele>
<time>2016-06-25T13:51:27Z</time>
</trkpt>
<trkpt lat="44.707360100" lon="6.641096710">
  <ele>1574.500000</ele>
<time>2016-06-25T13:51:34Z</time>
</trkpt>
<trkpt lat="44.707433350" lon="6.641125040">
  <ele>1574.800000</ele>
<time>2016-06-25T13:51:40Z</time>
</trkpt>
<trkpt lat="44.707527730" lon="6.641217410">
  <ele>1576.000000</ele>
<time>2016-06-25T13:51:49Z</time>
</trkpt>
<trkpt lat="44.707600150" lon="6.641285140">
  <ele>1582.300000</ele>
<time>2016-06-25T13:52:10Z</time>
</trkpt>
<trkpt lat="44.707668380" lon="6.641351690">
  <ele>1583.500000</ele>
<time>2016-06-25T13:52:18Z</time>
</trkpt>
<trkpt lat="44.707735100" lon="6.641418410">
  <ele>1584.800000</ele>
<time>2016-06-25T13:52:26Z</time>
</trkpt>
<trkpt lat="44.707741810" lon="6.641431820">
  <ele>1584.900000</ele>
<time>2016-06-25T13:52:27Z</time>
</trkpt>
<trkpt lat="44.707830150" lon="6.641610020">
  <ele>1588.500000</ele>
<time>2016-06-25T13:52:40Z</time>
</trkpt>
<trkpt lat="44.707881780" lon="6.641690150">
  <ele>1590.900000</ele>
<time>2016-06-25T13:52:47Z</time>
</trkpt>
<trkpt lat="44.707953370" lon="6.641736750">
  <ele>1592.500000</ele>
<time>2016-06-25T13:52:53Z</time>
</trkpt>
<trkpt lat="44.708020090" lon="6.641783360">
  <ele>1594.000000</ele>
<time>2016-06-25T13:52:59Z</time>
</trkpt>
<trkpt lat="44.708096700" lon="6.641833480">
  <ele>1595.600000</ele>
<time>2016-06-25T13:53:36Z</time>
</trkpt>
<trkpt lat="44.708105080" lon="6.641838340">
  <ele>1595.600000</ele>
<time>2016-06-25T13:53:37Z</time>
</trkpt>
<trkpt lat="44.708253440" lon="6.641916800">
  <ele>1595.100000</ele>
<time>2016-06-25T13:53:49Z</time>
</trkpt>
<trkpt lat="44.708323340" lon="6.641990050">
  <ele>1596.600000</ele>
<time>2016-06-25T13:53:57Z</time>
</trkpt>
<trkpt lat="44.708371790" lon="6.642080070">
  <ele>1597.800000</ele>
<time>2016-06-25T13:54:03Z</time>
</trkpt>
<trkpt lat="44.708431810" lon="6.642161710">
  <ele>1600.600000</ele>
<time>2016-06-25T13:54:27Z</time>
</trkpt>
<trkpt lat="44.708471700" lon="6.642250060">
  <ele>1601.400000</ele>
<time>2016-06-25T13:54:33Z</time>
</trkpt>
<trkpt lat="44.708535070" lon="6.642318460">
  <ele>1603.300000</ele>
<time>2016-06-25T13:54:38Z</time>
</trkpt>
<trkpt lat="44.708553340" lon="6.642331700">
  <ele>1603.500000</ele>
<time>2016-06-25T13:54:39Z</time>
</trkpt>
<trkpt lat="44.708661800" lon="6.642450050">
  <ele>1605.900000</ele>
<time>2016-06-25T13:54:48Z</time>
</trkpt>
<trkpt lat="44.708725000" lon="6.642531690">
  <ele>1607.300000</ele>
<time>2016-06-25T13:54:55Z</time>
</trkpt>
<trkpt lat="44.708650070" lon="6.642463460">
  <ele>1602.800000</ele>
<time>2016-06-25T13:55:49Z</time>
</trkpt>
<trkpt lat="44.708638340" lon="6.642455080">
  <ele>1602.900000</ele>
<time>2016-06-25T13:55:50Z</time>
</trkpt>
<trkpt lat="44.708536750" lon="6.642303370">
  <ele>1601.500000</ele>
<time>2016-06-25T13:56:02Z</time>
</trkpt>
<trkpt lat="44.708475060" lon="6.642233460">
  <ele>1600.600000</ele>
<time>2016-06-25T13:56:08Z</time>
</trkpt>
<trkpt lat="44.708431810" lon="6.642150150">
  <ele>1600.400000</ele>
<time>2016-06-25T13:56:14Z</time>
</trkpt>
<trkpt lat="44.708370110" lon="6.642066660">
  <ele>1598.800000</ele>
<time>2016-06-25T13:56:20Z</time>
</trkpt>
<trkpt lat="44.708305070" lon="6.641981670">
  <ele>1597.000000</ele>
<time>2016-06-25T13:56:27Z</time>
</trkpt>
<trkpt lat="44.708223430" lon="6.641956690">
  <ele>1595.400000</ele>
<time>2016-06-25T13:56:34Z</time>
</trkpt>
<trkpt lat="44.708140110" lon="6.641920150">
  <ele>1593.500000</ele>
<time>2016-06-25T13:56:42Z</time>
</trkpt>
<trkpt lat="44.708056800" lon="6.641875050">
  <ele>1592.900000</ele>
<time>2016-06-25T13:56:47Z</time>
</trkpt>
<trkpt lat="44.707993430" lon="6.641808330">
  <ele>1594.000000</ele>
<time>2016-06-25T13:56:52Z</time>
</trkpt>
<trkpt lat="44.707980020" lon="6.641795090">
  <ele>1594.300000</ele>
<time>2016-06-25T13:56:53Z</time>
</trkpt>
<trkpt lat="44.707870050" lon="6.641658470">
  <ele>1597.400000</ele>
<time>2016-06-25T13:57:04Z</time>
</trkpt>
<trkpt lat="44.707835010" lon="6.641545140">
  <ele>1599.000000</ele>
<time>2016-06-25T13:57:10Z</time>
</trkpt>
<trkpt lat="44.707796790" lon="6.641440030">
  <ele>1600.000000</ele>
<time>2016-06-25T13:57:15Z</time>
</trkpt>
<trkpt lat="44.707736780" lon="6.641375160">
  <ele>1600.800000</ele>
<time>2016-06-25T13:57:21Z</time>
</trkpt>
<trkpt lat="44.707671730" lon="6.641293350">
  <ele>1602.500000</ele>
<time>2016-06-25T13:57:27Z</time>
</trkpt>
<trkpt lat="44.707608370" lon="6.641210030">
  <ele>1603.900000</ele>
<time>2016-06-25T13:57:33Z</time>
</trkpt>
<trkpt lat="44.707550030" lon="6.641125040">
  <ele>1605.400000</ele>
<time>2016-06-25T13:57:40Z</time>
</trkpt>
<trkpt lat="44.707488340" lon="6.641081790">
  <ele>1607.000000</ele>
<time>2016-06-25T13:57:46Z</time>
</trkpt>
<trkpt lat="44.707411730" lon="6.641058490">
  <ele>1607.500000</ele>
<time>2016-06-25T13:57:50Z</time>
</trkpt>
<trkpt lat="44.707346680" lon="6.640978360">
  <ele>1609.400000</ele>
<time>2016-06-25T13:57:57Z</time>
</trkpt>
<trkpt lat="44.707336790" lon="6.640965110">
  <ele>1609.600000</ele>
<time>2016-06-25T13:57:58Z</time>
</trkpt>
<trkpt lat="44.707191790" lon="6.640906780">
  <ele>1603.900000</ele>
<time>2016-06-25T13:58:13Z</time>
</trkpt>
<trkpt lat="44.707135120" lon="6.640820110">
  <ele>1602.600000</ele>
<time>2016-06-25T13:58:24Z</time>
</trkpt>
<trkpt lat="44.707148370" lon="6.640945000">
  <ele>1601.800000</ele>
<time>2016-06-25T13:58:48Z</time>
</trkpt>
<trkpt lat="44.707225150" lon="6.641006690">
  <ele>1603.100000</ele>
<time>2016-06-25T13:59:12Z</time>
</trkpt>
<trkpt lat="44.707228330" lon="6.641008360">
  <ele>1603.000000</ele>
<time>2016-06-25T13:59:13Z</time>
</trkpt>
<trkpt lat="44.707351710" lon="6.641140130">
  <ele>1600.800000</ele>
<time>2016-06-25T13:59:35Z</time>
</trkpt>
<trkpt lat="44.707383400" lon="6.641248420">
  <ele>1600.900000</ele>
<time>2016-06-25T13:59:49Z</time>
</trkpt>
<trkpt lat="44.707453470" lon="6.641313470">
  <ele>1601.500000</ele>
<time>2016-06-25T14:00:00Z</time>
</trkpt>
<trkpt lat="44.707505100" lon="6.641406670">
  <ele>1602.500000</ele>
<time>2016-06-25T14:00:12Z</time>
</trkpt>
<trkpt lat="44.707563440" lon="6.641500050">
  <ele>1604.100000</ele>
<time>2016-06-25T14:00:28Z</time>
</trkpt>
<trkpt lat="44.707568470" lon="6.641506750">
  <ele>1604.300000</ele>
<time>2016-06-25T14:00:29Z</time>
</trkpt>
<trkpt lat="44.707571820" lon="6.641658470">
  <ele>1605.900000</ele>
<time>2016-06-25T14:00:57Z</time>
</trkpt>
<trkpt lat="44.707490010" lon="6.641688470">
  <ele>1606.500000</ele>
<time>2016-06-25T14:01:07Z</time>
</trkpt>
<trkpt lat="44.707456820" lon="6.641795090">
  <ele>1608.000000</ele>
<time>2016-06-25T14:01:32Z</time>
</trkpt>
<trkpt lat="44.707448440" lon="6.641803470">
  <ele>1608.000000</ele>
<time>2016-06-25T14:01:33Z</time>
</trkpt>
<trkpt lat="44.707390100" lon="6.641948480">
  <ele>1609.500000</ele>
<time>2016-06-25T14:01:58Z</time>
</trkpt>
<trkpt lat="44.707465040" lon="6.642013350">
  <ele>1611.500000</ele>
<time>2016-06-25T14:02:15Z</time>
</trkpt>
<trkpt lat="44.707548350" lon="6.642048390">
  <ele>1613.800000</ele>
<time>2016-06-25T14:02:28Z</time>
</trkpt>
<trkpt lat="44.707630160" lon="6.642086780">
  <ele>1615.300000</ele>
<time>2016-06-25T14:02:37Z</time>
</trkpt>
<trkpt lat="44.707635020" lon="6.642096670">
  <ele>1615.300000</ele>
<time>2016-06-25T14:02:38Z</time>
</trkpt>
<trkpt lat="44.707465040" lon="6.642071690">
  <ele>1616.900000</ele>
<time>2016-06-25T14:03:00Z</time>
</trkpt>
<trkpt lat="44.707385070" lon="6.642095160">
  <ele>1617.800000</ele>
<time>2016-06-25T14:03:08Z</time>
</trkpt>
<trkpt lat="44.707423460" lon="6.642200100">
  <ele>1619.500000</ele>
<time>2016-06-25T14:03:16Z</time>
</trkpt>
<trkpt lat="44.707465040" lon="6.642303370">
  <ele>1621.500000</ele>
<time>2016-06-25T14:03:29Z</time>
</trkpt>
<trkpt lat="44.707521700" lon="6.642388360">
  <ele>1622.600000</ele>
<time>2016-06-25T14:03:37Z</time>
</trkpt>
<trkpt lat="44.707575010" lon="6.642483410">
  <ele>1624.100000</ele>
<time>2016-06-25T14:03:48Z</time>
</trkpt>
<trkpt lat="44.707581710" lon="6.642486760">
  <ele>1624.300000</ele>
<time>2016-06-25T14:03:49Z</time>
</trkpt>
<trkpt lat="44.707710120" lon="6.642610150">
  <ele>1626.100000</ele>
<time>2016-06-25T14:04:07Z</time>
</trkpt>
<trkpt lat="44.707786730" lon="6.642671670">
  <ele>1627.100000</ele>
<time>2016-06-25T14:04:16Z</time>
</trkpt>
<trkpt lat="44.707865020" lon="6.642725150">
  <ele>1629.800000</ele>
<time>2016-06-25T14:04:24Z</time>
</trkpt>
<trkpt lat="44.707911790" lon="6.642625070">
  <ele>1634.000000</ele>
<time>2016-06-25T14:04:43Z</time>
</trkpt>
<trkpt lat="44.707993430" lon="6.642648370">
  <ele>1637.500000</ele>
<time>2016-06-25T14:04:52Z</time>
</trkpt>
<trkpt lat="44.708010030" lon="6.642671670">
  <ele>1637.800000</ele>
<time>2016-06-25T14:04:53Z</time>
</trkpt>
<trkpt lat="44.708153360" lon="6.642710060">
  <ele>1641.600000</ele>
<time>2016-06-25T14:05:13Z</time>
</trkpt>
<trkpt lat="44.708215050" lon="6.642791700">
  <ele>1643.000000</ele>
<time>2016-06-25T14:05:22Z</time>
</trkpt>
<trkpt lat="44.708278420" lon="6.642871660">
  <ele>1644.000000</ele>
<time>2016-06-25T14:05:28Z</time>
</trkpt>
<trkpt lat="44.708310100" lon="6.642985150">
  <ele>1645.300000</ele>
<time>2016-06-25T14:05:35Z</time>
</trkpt>
<trkpt lat="44.708360060" lon="6.643063440">
  <ele>1646.800000</ele>
<time>2016-06-25T14:06:05Z</time>
</trkpt>
<trkpt lat="44.708368440" lon="6.643083390">
  <ele>1646.900000</ele>
<time>2016-06-25T14:06:06Z</time>
</trkpt>
<trkpt lat="44.708490140" lon="6.643205090">
  <ele>1648.300000</ele>
<time>2016-06-25T14:06:26Z</time>
</trkpt>
<trkpt lat="44.708566750" lon="6.643260080">
  <ele>1648.300000</ele>
<time>2016-06-25T14:06:35Z</time>
</trkpt>
<trkpt lat="44.708633470" lon="6.643326800">
  <ele>1648.400000</ele>
<time>2016-06-25T14:06:41Z</time>
</trkpt>
<trkpt lat="44.708708410" lon="6.643390000">
  <ele>1648.100000</ele>
<time>2016-06-25T14:06:49Z</time>
</trkpt>
<trkpt lat="44.708791720" lon="6.643405090">
  <ele>1648.400000</ele>
<time>2016-06-25T14:07:00Z</time>
</trkpt>
<trkpt lat="44.708845030" lon="6.643500140">
  <ele>1647.900000</ele>
<time>2016-06-25T14:07:08Z</time>
</trkpt>
<trkpt lat="44.708850060" lon="6.643515060">
  <ele>1647.800000</ele>
<time>2016-06-25T14:07:09Z</time>
</trkpt>
<trkpt lat="44.708936730" lon="6.643700130">
  <ele>1647.000000</ele>
<time>2016-06-25T14:07:23Z</time>
</trkpt>
<trkpt lat="44.708946790" lon="6.643811780">
  <ele>1647.800000</ele>
<time>2016-06-25T14:07:31Z</time>
</trkpt>
<trkpt lat="44.708966740" lon="6.643925100">
  <ele>1648.600000</ele>
<time>2016-06-25T14:07:39Z</time>
</trkpt>
<trkpt lat="44.709015020" lon="6.644031720">
  <ele>1649.500000</ele>
<time>2016-06-25T14:07:49Z</time>
</trkpt>
<trkpt lat="44.709075030" lon="6.644118390">
  <ele>1651.100000</ele>
<time>2016-06-25T14:07:59Z</time>
</trkpt>
<trkpt lat="44.709140080" lon="6.644201700">
  <ele>1652.900000</ele>
<time>2016-06-25T14:08:08Z</time>
</trkpt>
<trkpt lat="44.709203440" lon="6.644273450">
  <ele>1654.400000</ele>
<time>2016-06-25T14:08:17Z</time>
</trkpt>
<trkpt lat="44.709213330" lon="6.644276800">
  <ele>1654.600000</ele>
<time>2016-06-25T14:08:18Z</time>
</trkpt>
<trkpt lat="44.709296820" lon="6.644461710">
  <ele>1656.500000</ele>
<time>2016-06-25T14:08:46Z</time>
</trkpt>
<trkpt lat="44.709380130" lon="6.644420130">
  <ele>1657.500000</ele>
<time>2016-06-25T14:09:19Z</time>
</trkpt>
<trkpt lat="44.709381810" lon="6.644411750">
  <ele>1657.900000</ele>
<time>2016-06-25T14:09:20Z</time>
</trkpt>
<trkpt lat="44.709393380" lon="6.644193490">
  <ele>1661.400000</ele>
<time>2016-06-25T14:09:34Z</time>
</trkpt>
<trkpt lat="44.709403440" lon="6.644081670">
  <ele>1664.600000</ele>
<time>2016-06-25T14:09:53Z</time>
</trkpt>
<trkpt lat="44.709431770" lon="6.643975060">
  <ele>1664.500000</ele>
<time>2016-06-25T14:10:48Z</time>
</trkpt>
<trkpt lat="44.709435120" lon="6.643961810">
  <ele>1664.500000</ele>
<time>2016-06-25T14:10:49Z</time>
</trkpt>
<trkpt lat="44.709551800" lon="6.643831720">
  <ele>1666.900000</ele>
<time>2016-06-25T14:11:33Z</time>
</trkpt>
<trkpt lat="44.709568390" lon="6.643948400">
  <ele>1670.400000</ele>
<time>2016-06-25T14:12:02Z</time>
</trkpt>
<trkpt lat="44.709563360" lon="6.643960140">
  <ele>1670.500000</ele>
<time>2016-06-25T14:12:03Z</time>
</trkpt>
<trkpt lat="44.709546770" lon="6.644183430">
  <ele>1673.300000</ele>
<time>2016-06-25T14:12:27Z</time>
</trkpt>
<trkpt lat="44.709625050" lon="6.644241770">
  <ele>1675.500000</ele>
<time>2016-06-25T14:12:39Z</time>
</trkpt>
<trkpt lat="44.709703340" lon="6.644291720">
  <ele>1677.000000</ele>
<time>2016-06-25T14:12:50Z</time>
</trkpt>
<trkpt lat="44.709781790" lon="6.644341680">
  <ele>1678.600000</ele>
<time>2016-06-25T14:13:01Z</time>
</trkpt>
<trkpt lat="44.709720100" lon="6.644426670">
  <ele>1681.500000</ele>
<time>2016-06-25T14:13:21Z</time>
</trkpt>
<trkpt lat="44.709711720" lon="6.644430030">
  <ele>1681.800000</ele>
<time>2016-06-25T14:13:22Z</time>
</trkpt>
<trkpt lat="44.709770060" lon="6.644573360">
  <ele>1684.900000</ele>
<time>2016-06-25T14:13:45Z</time>
</trkpt>
<trkpt lat="44.709850020" lon="6.644615100">
  <ele>1686.800000</ele>
<time>2016-06-25T14:13:57Z</time>
</trkpt>
<trkpt lat="44.709925130" lon="6.644661700">
  <ele>1688.500000</ele>
<time>2016-06-25T14:14:07Z</time>
</trkpt>
<trkpt lat="44.710011790" lon="6.644658350">
  <ele>1690.400000</ele>
<time>2016-06-25T14:14:17Z</time>
</trkpt>
<trkpt lat="44.710095110" lon="6.644616770">
  <ele>1692.800000</ele>
<time>2016-06-25T14:14:29Z</time>
</trkpt>
<trkpt lat="44.710101820" lon="6.644611740">
  <ele>1693.000000</ele>
<time>2016-06-25T14:14:30Z</time>
</trkpt>
<trkpt lat="44.710196700" lon="6.644776700">
  <ele>1696.000000</ele>
<time>2016-06-25T14:15:28Z</time>
</trkpt>
<trkpt lat="44.710226710" lon="6.644895050">
  <ele>1697.500000</ele>
<time>2016-06-25T14:15:51Z</time>
</trkpt>
<trkpt lat="44.710218490" lon="6.644900080">
  <ele>1697.600000</ele>
<time>2016-06-25T14:15:52Z</time>
</trkpt>
<trkpt lat="44.710393340" lon="6.644908460">
  <ele>1702.100000</ele>
<time>2016-06-25T14:16:31Z</time>
</trkpt>
<trkpt lat="44.710398370" lon="6.645021790">
  <ele>1705.000000</ele>
<time>2016-06-25T14:17:39Z</time>
</trkpt>
<trkpt lat="44.710393340" lon="6.645035030">
  <ele>1705.000000</ele>
<time>2016-06-25T14:17:40Z</time>
</trkpt>
<trkpt lat="44.710253360" lon="6.645128410">
  <ele>1705.500000</ele>
<time>2016-06-25T14:17:53Z</time>
</trkpt>
<trkpt lat="44.710171720" lon="6.645180040">
  <ele>1706.100000</ele>
<time>2016-06-25T14:18:02Z</time>
</trkpt>
<trkpt lat="44.710086730" lon="6.645193450">
  <ele>1707.900000</ele>
<time>2016-06-25T14:18:33Z</time>
</trkpt>
<trkpt lat="44.710010120" lon="6.645246760">
  <ele>1708.100000</ele>
<time>2016-06-25T14:18:46Z</time>
</trkpt>
<trkpt lat="44.710003410" lon="6.645261680">
  <ele>1708.100000</ele>
<time>2016-06-25T14:18:47Z</time>
</trkpt>
<trkpt lat="44.710033420" lon="6.645421770">
  <ele>1709.500000</ele>
<time>2016-06-25T14:18:56Z</time>
</trkpt>
<trkpt lat="44.710116740" lon="6.645463350">
  <ele>1710.500000</ele>
<time>2016-06-25T14:19:04Z</time>
</trkpt>
<trkpt lat="44.710051690" lon="6.645543480">
  <ele>1713.300000</ele>
<time>2016-06-25T14:19:32Z</time>
</trkpt>
<trkpt lat="44.709981790" lon="6.645618410">
  <ele>1714.000000</ele>
<time>2016-06-25T14:19:41Z</time>
</trkpt>
<trkpt lat="44.709915070" lon="6.645673400">
  <ele>1715.000000</ele>
<time>2016-06-25T14:20:42Z</time>
</trkpt>
<trkpt lat="44.709991680" lon="6.645748330">
  <ele>1716.400000</ele>
<time>2016-06-25T14:20:43Z</time>
</trkpt>
<trkpt lat="44.710076670" lon="6.645758390">
  <ele>1717.400000</ele>
<time>2016-06-25T14:20:53Z</time>
</trkpt>
<trkpt lat="44.710163340" lon="6.645725030">
  <ele>1719.500000</ele>
<time>2016-06-25T14:21:05Z</time>
</trkpt>
<trkpt lat="44.710128470" lon="6.645835000">
  <ele>1725.300000</ele>
<time>2016-06-25T14:21:41Z</time>
</trkpt>
<trkpt lat="44.710063430" lon="6.645896690">
  <ele>1726.300000</ele>
<time>2016-06-25T14:21:50Z</time>
</trkpt>
<trkpt lat="44.710048340" lon="6.645915130">
  <ele>1726.400000</ele>
<time>2016-06-25T14:21:51Z</time>
</trkpt>
<trkpt lat="44.709941720" lon="6.646053430">
  <ele>1728.500000</ele>
<time>2016-06-25T14:22:05Z</time>
</trkpt>
<trkpt lat="44.709965020" lon="6.646165080">
  <ele>1730.800000</ele>
<time>2016-06-25T14:22:17Z</time>
</trkpt>
<trkpt lat="44.710050020" lon="6.646141780">
  <ele>1732.100000</ele>
<time>2016-06-25T14:22:24Z</time>
</trkpt>
<trkpt lat="44.710131820" lon="6.646106740">
  <ele>1734.300000</ele>
<time>2016-06-25T14:22:34Z</time>
</trkpt>
<trkpt lat="44.710210110" lon="6.646065000">
  <ele>1736.600000</ele>
<time>2016-06-25T14:22:46Z</time>
</trkpt>
<trkpt lat="44.710293430" lon="6.646050080">
  <ele>1738.500000</ele>
<time>2016-06-25T14:22:58Z</time>
</trkpt>
<trkpt lat="44.710300130" lon="6.646046730">
  <ele>1738.800000</ele>
<time>2016-06-25T14:22:59Z</time>
</trkpt>
<trkpt lat="44.710450000" lon="6.646003480">
  <ele>1743.600000</ele>
<time>2016-06-25T14:23:26Z</time>
</trkpt>
<trkpt lat="44.710428370" lon="6.646121830">
  <ele>1747.800000</ele>
<time>2016-06-25T14:23:53Z</time>
</trkpt>
<trkpt lat="44.710516720" lon="6.646141780">
  <ele>1749.900000</ele>
<time>2016-06-25T14:24:09Z</time>
</trkpt>
<trkpt lat="44.710525100" lon="6.646138420">
  <ele>1750.000000</ele>
<time>2016-06-25T14:24:10Z</time>
</trkpt>
<trkpt lat="44.710680000" lon="6.646068350">
  <ele>1753.400000</ele>
<time>2016-06-25T14:24:31Z</time>
</trkpt>
<trkpt lat="44.710756780" lon="6.646118480">
  <ele>1755.500000</ele>
<time>2016-06-25T14:24:43Z</time>
</trkpt>
<trkpt lat="44.710830040" lon="6.646140100">
  <ele>1757.300000</ele>
<time>2016-06-25T14:25:05Z</time>
</trkpt>
<trkpt lat="44.710905140" lon="6.646086790">
  <ele>1760.000000</ele>
<time>2016-06-25T14:25:10Z</time>
</trkpt>
<trkpt lat="44.710915030" lon="6.646080090">
  <ele>1760.500000</ele>
<time>2016-06-25T14:25:11Z</time>
</trkpt>
<trkpt lat="44.711040090" lon="6.645935080">
  <ele>1766.500000</ele>
<time>2016-06-25T14:26:34Z</time>
</trkpt>
<trkpt lat="44.711046790" lon="6.645931730">
  <ele>1766.500000</ele>
<time>2016-06-25T14:26:35Z</time>
</trkpt>
<trkpt lat="44.711181740" lon="6.645863330">
  <ele>1768.800000</ele>
<time>2016-06-25T14:27:36Z</time>
</trkpt>
<trkpt lat="44.711211750" lon="6.645880090">
  <ele>1769.000000</ele>
<time>2016-06-25T14:27:37Z</time>
</trkpt>
<trkpt lat="44.711335130" lon="6.645963410">
  <ele>1769.600000</ele>
<time>2016-06-25T14:27:54Z</time>
</trkpt>
<trkpt lat="44.711415090" lon="6.645995090">
  <ele>1770.500000</ele>
<time>2016-06-25T14:28:02Z</time>
</trkpt>
<trkpt lat="44.711493380" lon="6.645935080">
  <ele>1771.800000</ele>
<time>2016-06-25T14:28:18Z</time>
</trkpt>
<trkpt lat="44.711516680" lon="6.645825110">
  <ele>1772.500000</ele>
<time>2016-06-25T14:28:27Z</time>
</trkpt>
<trkpt lat="44.711555070" lon="6.645711790">
  <ele>1773.100000</ele>
<time>2016-06-25T14:28:38Z</time>
</trkpt>
<trkpt lat="44.711560100" lon="6.645705080">
  <ele>1773.300000</ele>
<time>2016-06-25T14:28:39Z</time>
</trkpt>
<trkpt lat="44.711611730" lon="6.645505090">
  <ele>1776.500000</ele>
<time>2016-06-25T14:29:09Z</time>
</trkpt>
<trkpt lat="44.711638390" lon="6.645385060">
  <ele>1777.400000</ele>
<time>2016-06-25T14:29:22Z</time>
</trkpt>
<trkpt lat="44.711708460" lon="6.645320020">
  <ele>1778.600000</ele>
<time>2016-06-25T14:29:34Z</time>
</trkpt>
<trkpt lat="44.711740140" lon="6.645210050">
  <ele>1780.000000</ele>
<time>2016-06-25T14:29:43Z</time>
</trkpt>
<trkpt lat="44.711746680" lon="6.645200150">
  <ele>1780.000000</ele>
<time>2016-06-25T14:29:44Z</time>
</trkpt>
<trkpt lat="44.711791770" lon="6.644980050">
  <ele>1793.500000</ele>
<time>2016-06-25T14:30:50Z</time>
</trkpt>
<trkpt lat="44.711788420" lon="6.644966800">
  <ele>1794.100000</ele>
<time>2016-06-25T14:30:51Z</time>
</trkpt>
<trkpt lat="44.711801670" lon="6.645216750">
  <ele>1804.900000</ele>
<time>2016-06-25T14:31:27Z</time>
</trkpt>
<trkpt lat="44.711853470" lon="6.645311800">
  <ele>1807.000000</ele>
<time>2016-06-25T14:31:34Z</time>
</trkpt>
<trkpt lat="44.711908450" lon="6.645403330">
  <ele>1808.900000</ele>
<time>2016-06-25T14:31:41Z</time>
</trkpt>
<trkpt lat="44.711915160" lon="6.645528390">
  <ele>1813.000000</ele>
<time>2016-06-25T14:32:00Z</time>
</trkpt>
<trkpt lat="44.711918340" lon="6.645536770">
  <ele>1813.300000</ele>
<time>2016-06-25T14:32:01Z</time>
</trkpt>
<trkpt lat="44.711961760" lon="6.645756710">
  <ele>1818.500000</ele>
<time>2016-06-25T14:32:25Z</time>
</trkpt>
<trkpt lat="44.711993440" lon="6.645873390">
  <ele>1819.500000</ele>
<time>2016-06-25T14:32:33Z</time>
</trkpt>
<trkpt lat="44.712001830" lon="6.645998450">
  <ele>1821.600000</ele>
<time>2016-06-25T14:32:47Z</time>
</trkpt>
<trkpt lat="44.712020100" lon="6.646111770">
  <ele>1823.500000</ele>
<time>2016-06-25T14:33:00Z</time>
</trkpt>
<trkpt lat="44.712041720" lon="6.645996770">
  <ele>1829.400000</ele>
<time>2016-06-25T14:33:28Z</time>
</trkpt>
<trkpt lat="44.712041720" lon="6.645983360">
  <ele>1829.600000</ele>
<time>2016-06-25T14:33:29Z</time>
</trkpt>
<trkpt lat="44.712061670" lon="6.645751680">
  <ele>1834.800000</ele>
<time>2016-06-25T14:33:57Z</time>
</trkpt>
<trkpt lat="44.712098380" lon="6.645638360">
  <ele>1835.500000</ele>
<time>2016-06-25T14:34:07Z</time>
</trkpt>
<trkpt lat="44.712111800" lon="6.645518330">
  <ele>1836.800000</ele>
<time>2016-06-25T14:34:16Z</time>
</trkpt>
<trkpt lat="44.712105090" lon="6.645393440">
  <ele>1837.500000</ele>
<time>2016-06-25T14:34:24Z</time>
</trkpt>
<trkpt lat="44.712078440" lon="6.645273410">
  <ele>1838.600000</ele>
<time>2016-06-25T14:34:32Z</time>
</trkpt>
<trkpt lat="44.712076760" lon="6.645256820">
  <ele>1838.600000</ele>
<time>2016-06-25T14:34:33Z</time>
</trkpt>
<trkpt lat="44.712180020" lon="6.645408360">
  <ele>1847.000000</ele>
<time>2016-06-25T14:35:12Z</time>
</trkpt>
<trkpt lat="44.712163430" lon="6.645523360">
  <ele>1850.000000</ele>
<time>2016-06-25T14:35:27Z</time>
</trkpt>
<trkpt lat="44.712236690" lon="6.645593430">
  <ele>1851.900000</ele>
<time>2016-06-25T14:35:36Z</time>
</trkpt>
<trkpt lat="44.712246740" lon="6.645596790">
  <ele>1852.000000</ele>
<time>2016-06-25T14:35:37Z</time>
</trkpt>
<trkpt lat="44.712401810" lon="6.645640040">
  <ele>1859.000000</ele>
<time>2016-06-25T14:36:03Z</time>
</trkpt>
<trkpt lat="44.712388400" lon="6.645758390">
  <ele>1867.100000</ele>
<time>2016-06-25T14:36:31Z</time>
</trkpt>
<trkpt lat="44.712320000" lon="6.645831810">
  <ele>1870.300000</ele>
<time>2016-06-25T14:36:42Z</time>
</trkpt>
<trkpt lat="44.712313460" lon="6.645840030">
  <ele>1870.600000</ele>
<time>2016-06-25T14:36:43Z</time>
</trkpt>
<trkpt lat="44.712423440" lon="6.645943460">
  <ele>1875.000000</ele>
<time>2016-06-25T14:37:15Z</time>
</trkpt>
<trkpt lat="44.712470040" lon="6.646045050">
  <ele>1878.000000</ele>
<time>2016-06-25T14:37:24Z</time>
</trkpt>
<trkpt lat="44.712520160" lon="6.646111770">
  <ele>1879.300000</ele>
<time>2016-06-25T14:37:45Z</time>
</trkpt>
<trkpt lat="44.712576820" lon="6.646160050">
  <ele>1880.000000</ele>
<time>2016-06-25T14:37:46Z</time>
</trkpt>
<trkpt lat="44.712648410" lon="6.646261810">
  <ele>1881.500000</ele>
<time>2016-06-25T14:38:01Z</time>
</trkpt>
<trkpt lat="44.712685120" lon="6.646373450">
  <ele>1884.000000</ele>
<time>2016-06-25T14:38:29Z</time>
</trkpt>
<trkpt lat="44.712740100" lon="6.646470010">
  <ele>1885.100000</ele>
<time>2016-06-25T14:38:41Z</time>
</trkpt>
<trkpt lat="44.712748490" lon="6.646588370">
  <ele>1887.800000</ele>
<time>2016-06-25T14:39:10Z</time>
</trkpt>
<trkpt lat="44.712753350" lon="6.646605130">
  <ele>1887.900000</ele>
<time>2016-06-25T14:39:11Z</time>
</trkpt>
<trkpt lat="44.712858460" lon="6.646768410">
  <ele>1890.600000</ele>
<time>2016-06-25T14:39:38Z</time>
</trkpt>
<trkpt lat="44.712935070" lon="6.646811830">
  <ele>1892.000000</ele>
<time>2016-06-25T14:39:53Z</time>
</trkpt>
<trkpt lat="44.712856780" lon="6.646860110">
  <ele>1893.900000</ele>
<time>2016-06-25T14:43:27Z</time>
</trkpt>
<trkpt lat="44.712853430" lon="6.646865140">
  <ele>1893.900000</ele>
<time>2016-06-25T14:43:28Z</time>
</trkpt>
<trkpt lat="44.712926680" lon="6.647078370">
  <ele>1898.000000</ele>
<time>2016-06-25T14:43:58Z</time>
</trkpt>
<trkpt lat="44.712866670" lon="6.647163360">
  <ele>1901.300000</ele>
<time>2016-06-25T14:44:18Z</time>
</trkpt>
<trkpt lat="44.712865160" lon="6.647285070">
  <ele>1905.800000</ele>
<time>2016-06-25T14:44:42Z</time>
</trkpt>
<trkpt lat="44.712863480" lon="6.647296800">
  <ele>1906.000000</ele>
<time>2016-06-25T14:44:43Z</time>
</trkpt>
<trkpt lat="44.712891820" lon="6.647470140">
  <ele>1912.500000</ele>
<time>2016-06-25T14:45:20Z</time>
</trkpt>
<trkpt lat="44.712965070" lon="6.647525130">
  <ele>1913.400000</ele>
<time>2016-06-25T14:45:29Z</time>
</trkpt>
<trkpt lat="44.713045040" lon="6.647578440">
  <ele>1914.500000</ele>
<time>2016-06-25T14:45:42Z</time>
</trkpt>
<trkpt lat="44.713108400" lon="6.647656720">
  <ele>1915.000000</ele>
<time>2016-06-25T14:45:50Z</time>
</trkpt>
<trkpt lat="44.713120140" lon="6.647666780">
  <ele>1915.000000</ele>
<time>2016-06-25T14:45:51Z</time>
</trkpt>
<trkpt lat="44.713248380" lon="6.647580110">
  <ele>1916.600000</ele>
<time>2016-06-25T14:46:07Z</time>
</trkpt>
<trkpt lat="44.713326670" lon="6.647541720">
  <ele>1917.600000</ele>
<time>2016-06-25T14:46:15Z</time>
</trkpt>
<trkpt lat="44.713413340" lon="6.647523450">
  <ele>1918.500000</ele>
<time>2016-06-25T14:46:24Z</time>
</trkpt>
<trkpt lat="44.713466810" lon="6.647435110">
  <ele>1919.900000</ele>
<time>2016-06-25T14:46:30Z</time>
</trkpt>
<trkpt lat="44.713515090" lon="6.647330000">
  <ele>1921.000000</ele>
<time>2016-06-25T14:46:41Z</time>
</trkpt>
<trkpt lat="44.713551810" lon="6.647220030">
  <ele>1922.500000</ele>
<time>2016-06-25T14:46:51Z</time>
</trkpt>
<trkpt lat="44.713556670" lon="6.647216670">
  <ele>1922.800000</ele>
<time>2016-06-25T14:46:52Z</time>
</trkpt>
<trkpt lat="44.713635120" lon="6.647025060">
  <ele>1926.400000</ele>
<time>2016-06-25T14:47:09Z</time>
</trkpt>
<trkpt lat="44.713683400" lon="6.646933360">
  <ele>1928.400000</ele>
<time>2016-06-25T14:47:19Z</time>
</trkpt>
<trkpt lat="44.713743420" lon="6.646843340">
  <ele>1930.500000</ele>
<time>2016-06-25T14:47:28Z</time>
</trkpt>
<trkpt lat="44.713783480" lon="6.646750140">
  <ele>1932.800000</ele>
<time>2016-06-25T14:47:36Z</time>
</trkpt>
<trkpt lat="44.713820030" lon="6.646643350">
  <ele>1934.900000</ele>
<time>2016-06-25T14:47:43Z</time>
</trkpt>
<trkpt lat="44.713886750" lon="6.646565060">
  <ele>1936.500000</ele>
<time>2016-06-25T14:47:50Z</time>
</trkpt>
<trkpt lat="44.713926810" lon="6.646466830">
  <ele>1938.800000</ele>
<time>2016-06-25T14:47:59Z</time>
</trkpt>
<trkpt lat="44.713933350" lon="6.646456770">
  <ele>1939.000000</ele>
<time>2016-06-25T14:48:00Z</time>
</trkpt>
<trkpt lat="44.714030080" lon="6.646288460">
  <ele>1942.600000</ele>
<time>2016-06-25T14:48:17Z</time>
</trkpt>
<trkpt lat="44.714113390" lon="6.646248400">
  <ele>1945.000000</ele>
<time>2016-06-25T14:48:31Z</time>
</trkpt>
<trkpt lat="44.714165030" lon="6.646170110">
  <ele>1946.000000</ele>
<time>2016-06-25T14:48:40Z</time>
</trkpt>
<trkpt lat="44.714210120" lon="6.646066680">
  <ele>1946.800000</ele>
<time>2016-06-25T14:48:47Z</time>
</trkpt>
<trkpt lat="44.714255050" lon="6.645973470">
  <ele>1947.400000</ele>
<time>2016-06-25T14:48:53Z</time>
</trkpt>
<trkpt lat="44.714310030" lon="6.645876740">
  <ele>1949.100000</ele>
<time>2016-06-25T14:49:02Z</time>
</trkpt>
<trkpt lat="44.714315060" lon="6.645868360">
  <ele>1949.400000</ele>
<time>2016-06-25T14:49:03Z</time>
</trkpt>
<trkpt lat="44.714358480" lon="6.645640040">
  <ele>1950.900000</ele>
<time>2016-06-25T14:49:24Z</time>
</trkpt>
<trkpt lat="44.714391670" lon="6.645528390">
  <ele>1949.500000</ele>
<time>2016-06-25T14:49:36Z</time>
</trkpt>
<trkpt lat="44.714425030" lon="6.645415070">
  <ele>1949.800000</ele>
<time>2016-06-25T14:49:45Z</time>
</trkpt>
<trkpt lat="44.714456720" lon="6.645311800">
  <ele>1951.800000</ele>
<time>2016-06-25T14:50:01Z</time>
</trkpt>
<trkpt lat="44.714500140" lon="6.645211720">
  <ele>1953.300000</ele>
<time>2016-06-25T14:50:08Z</time>
</trkpt>
<trkpt lat="44.714503490" lon="6.645201660">
  <ele>1953.300000</ele>
<time>2016-06-25T14:50:09Z</time>
</trkpt>
<trkpt lat="44.714620000" lon="6.645045090">
  <ele>1955.000000</ele>
<time>2016-06-25T14:50:25Z</time>
</trkpt>
<trkpt lat="44.714671800" lon="6.644945010">
  <ele>1955.500000</ele>
<time>2016-06-25T14:50:39Z</time>
</trkpt>
<trkpt lat="44.714728460" lon="6.644846770">
  <ele>1957.000000</ele>
<time>2016-06-25T14:50:48Z</time>
</trkpt>
<trkpt lat="44.714730130" lon="6.644735130">
  <ele>1958.100000</ele>
<time>2016-06-25T14:50:56Z</time>
</trkpt>
<trkpt lat="44.714745050" lon="6.644615100">
  <ele>1958.000000</ele>
<time>2016-06-25T14:51:06Z</time>
</trkpt>
<trkpt lat="44.714766680" lon="6.644496750">
  <ele>1957.500000</ele>
<time>2016-06-25T14:51:19Z</time>
</trkpt>
<trkpt lat="44.714761820" lon="6.644481830">
  <ele>1957.500000</ele>
<time>2016-06-25T14:51:20Z</time>
</trkpt>
<trkpt lat="44.714833400" lon="6.644288370">
  <ele>1958.300000</ele>
<time>2016-06-25T14:51:39Z</time>
</trkpt>
<trkpt lat="44.714876820" lon="6.644178400">
  <ele>1958.900000</ele>
<time>2016-06-25T14:51:52Z</time>
</trkpt>
<trkpt lat="44.714916720" lon="6.644078490">
  <ele>1958.900000</ele>
<time>2016-06-25T14:52:05Z</time>
</trkpt>
<trkpt lat="44.714993490" lon="6.644020150">
  <ele>1959.000000</ele>
<time>2016-06-25T14:52:16Z</time>
</trkpt>
<trkpt lat="44.715038420" lon="6.643945050">
  <ele>1959.300000</ele>
<time>2016-06-25T14:52:23Z</time>
</trkpt>
<trkpt lat="44.715040100" lon="6.643911690">
  <ele>1959.600000</ele>
<time>2016-06-25T14:52:24Z</time>
</trkpt>
<trkpt lat="44.715026690" lon="6.643708340">
  <ele>1961.000000</ele>
<time>2016-06-25T14:52:36Z</time>
</trkpt>
<trkpt lat="44.715016800" lon="6.643585130">
  <ele>1962.500000</ele>
<time>2016-06-25T14:52:49Z</time>
</trkpt>
<trkpt lat="44.715020150" lon="6.643468450">
  <ele>1964.400000</ele>
<time>2016-06-25T14:52:59Z</time>
</trkpt>
<trkpt lat="44.715008410" lon="6.643396700">
  <ele>1965.500000</ele>
<time>2016-06-25T14:53:29Z</time>
</trkpt>
<trkpt lat="44.715053340" lon="6.643345070">
  <ele>1968.400000</ele>
<time>2016-06-25T14:53:30Z</time>
</trkpt>
<trkpt lat="44.714965000" lon="6.643176760">
  <ele>1972.500000</ele>
<time>2016-06-25T14:53:54Z</time>
</trkpt>
<trkpt lat="44.714911690" lon="6.643081710">
  <ele>1974.000000</ele>
<time>2016-06-25T14:54:05Z</time>
</trkpt>
<trkpt lat="44.714856700" lon="6.642981800">
  <ele>1975.000000</ele>
<time>2016-06-25T14:54:16Z</time>
</trkpt>
<trkpt lat="44.714928450" lon="6.643051700">
  <ele>1980.500000</ele>
<time>2016-06-25T14:54:47Z</time>
</trkpt>
<trkpt lat="44.714938340" lon="6.643060090">
  <ele>1980.600000</ele>
<time>2016-06-25T14:54:48Z</time>
</trkpt>
<trkpt lat="44.715075130" lon="6.643170060">
  <ele>1984.400000</ele>
<time>2016-06-25T14:55:05Z</time>
</trkpt>
<trkpt lat="44.715150070" lon="6.643218340">
  <ele>1985.400000</ele>
<time>2016-06-25T14:55:14Z</time>
</trkpt>
<trkpt lat="44.715228360" lon="6.643265110">
  <ele>1986.600000</ele>
<time>2016-06-25T14:55:23Z</time>
</trkpt>
<trkpt lat="44.715310160" lon="6.643300140">
  <ele>1987.800000</ele>
<time>2016-06-25T14:55:32Z</time>
</trkpt>
<trkpt lat="44.715381740" lon="6.643376760">
  <ele>1988.900000</ele>
<time>2016-06-25T14:55:44Z</time>
</trkpt>
<trkpt lat="44.715418460" lon="6.643485050">
  <ele>1990.300000</ele>
<time>2016-06-25T14:55:56Z</time>
</trkpt>
<trkpt lat="44.715420130" lon="6.643493430">
  <ele>1990.400000</ele>
<time>2016-06-25T14:55:57Z</time>
</trkpt>
<trkpt lat="44.715536810" lon="6.643650010">
  <ele>1993.000000</ele>
<time>2016-06-25T14:56:17Z</time>
</trkpt>
<trkpt lat="44.715601690" lon="6.643726780">
  <ele>1995.100000</ele>
<time>2016-06-25T14:56:28Z</time>
</trkpt>
<trkpt lat="44.715681820" lon="6.643776740">
  <ele>1997.900000</ele>
<time>2016-06-25T14:56:41Z</time>
</trkpt>
<trkpt lat="44.715741660" lon="6.643860060">
  <ele>2000.000000</ele>
<time>2016-06-25T14:56:54Z</time>
</trkpt>
<trkpt lat="44.715795140" lon="6.643951750">
  <ele>2001.500000</ele>
<time>2016-06-25T14:57:10Z</time>
</trkpt>
<trkpt lat="44.715801680" lon="6.643956780">
  <ele>2001.600000</ele>
<time>2016-06-25T14:57:11Z</time>
</trkpt>
<trkpt lat="44.715940150" lon="6.643941700">
  <ele>2009.400000</ele>
<time>2016-06-25T14:57:54Z</time>
</trkpt>
<trkpt lat="44.715963450" lon="6.643825020">
  <ele>2011.500000</ele>
<time>2016-06-25T14:58:05Z</time>
</trkpt>
<trkpt lat="44.715961770" lon="6.643710020">
  <ele>2012.500000</ele>
<time>2016-06-25T14:58:13Z</time>
</trkpt>
<trkpt lat="44.715958420" lon="6.643696780">
  <ele>2012.500000</ele>
<time>2016-06-25T14:58:14Z</time>
</trkpt>
<trkpt lat="44.715895050" lon="6.643486730">
  <ele>2015.100000</ele>
<time>2016-06-25T14:58:32Z</time>
</trkpt>
<trkpt lat="44.715883480" lon="6.643365020">
  <ele>2016.500000</ele>
<time>2016-06-25T14:58:40Z</time>
</trkpt>
<trkpt lat="44.715843420" lon="6.643261760">
  <ele>2017.100000</ele>
<time>2016-06-25T14:58:47Z</time>
</trkpt>
<trkpt lat="44.715781730" lon="6.643180120">
  <ele>2018.000000</ele>
<time>2016-06-25T14:58:56Z</time>
</trkpt>
<trkpt lat="44.715725070" lon="6.643085060">
  <ele>2019.500000</ele>
<time>2016-06-25T14:59:06Z</time>
</trkpt>
<trkpt lat="44.715688350" lon="6.642976770">
  <ele>2020.400000</ele>
<time>2016-06-25T14:59:16Z</time>
</trkpt>
<trkpt lat="44.715683490" lon="6.642965040">
  <ele>2020.500000</ele>
<time>2016-06-25T14:59:17Z</time>
</trkpt>
<trkpt lat="44.715601690" lon="6.642770070">
  <ele>2022.000000</ele>
<time>2016-06-25T14:59:30Z</time>
</trkpt>
<trkpt lat="44.715555080" lon="6.642666810">
  <ele>2023.600000</ele>
<time>2016-06-25T14:59:40Z</time>
</trkpt>
<trkpt lat="44.715508480" lon="6.642573430">
  <ele>2025.100000</ele>
<time>2016-06-25T14:59:49Z</time>
</trkpt>
<trkpt lat="44.715466740" lon="6.642463460">
  <ele>2027.000000</ele>
<time>2016-06-25T14:59:59Z</time>
</trkpt>
<trkpt lat="44.715498420" lon="6.642350140">
  <ele>2027.900000</ele>
<time>2016-06-25T15:00:09Z</time>
</trkpt>
<trkpt lat="44.715576710" lon="6.642308400">
  <ele>2028.000000</ele>
<time>2016-06-25T15:00:18Z</time>
</trkpt>
<trkpt lat="44.715586770" lon="6.642306720">
  <ele>2028.100000</ele>
<time>2016-06-25T15:00:19Z</time>
</trkpt>
<trkpt lat="44.715745020" lon="6.642240000">
  <ele>2030.600000</ele>
<time>2016-06-25T15:00:37Z</time>
</trkpt>
<trkpt lat="44.715818440" lon="6.642281740">
  <ele>2032.000000</ele>
<time>2016-06-25T15:00:47Z</time>
</trkpt>
<trkpt lat="44.715901760" lon="6.642310070">
  <ele>2033.800000</ele>
<time>2016-06-25T15:00:54Z</time>
</trkpt>
<trkpt lat="44.715988430" lon="6.642326670">
  <ele>2037.600000</ele>
<time>2016-06-25T15:01:07Z</time>
</trkpt>
<trkpt lat="44.716068390" lon="6.642293480">
  <ele>2039.500000</ele>
<time>2016-06-25T15:01:17Z</time>
</trkpt>
<trkpt lat="44.716155060" lon="6.642261790">
  <ele>2040.500000</ele>
<time>2016-06-25T15:01:24Z</time>
</trkpt>
<trkpt lat="44.716171820" lon="6.642255090">
  <ele>2040.800000</ele>
<time>2016-06-25T15:01:25Z</time>
</trkpt>
<trkpt lat="44.716300070" lon="6.642150150">
  <ele>2042.500000</ele>
<time>2016-06-25T15:01:38Z</time>
</trkpt>
<trkpt lat="44.716361760" lon="6.642071690">
  <ele>2044.500000</ele>
<time>2016-06-25T15:01:47Z</time>
</trkpt>
<trkpt lat="44.716433340" lon="6.642015030">
  <ele>2046.900000</ele>
<time>2016-06-25T15:01:55Z</time>
</trkpt>
<trkpt lat="44.716508440" lon="6.641981670">
  <ele>2048.100000</ele>
<time>2016-06-25T15:02:01Z</time>
</trkpt>
<trkpt lat="44.716593430" lon="6.641956690">
  <ele>2049.300000</ele>
<time>2016-06-25T15:02:10Z</time>
</trkpt>
<trkpt lat="44.716660150" lon="6.641890140">
  <ele>2052.300000</ele>
<time>2016-06-25T15:02:21Z</time>
</trkpt>
<trkpt lat="44.716748330" lon="6.641886790">
  <ele>2055.000000</ele>
<time>2016-06-25T15:02:31Z</time>
</trkpt>
<trkpt lat="44.716766770" lon="6.641885110">
  <ele>2055.100000</ele>
<time>2016-06-25T15:02:32Z</time>
</trkpt>
<trkpt lat="44.716903390" lon="6.641816720">
  <ele>2057.600000</ele>
<time>2016-06-25T15:02:45Z</time>
</trkpt>
<trkpt lat="44.716975140" lon="6.641750000">
  <ele>2058.600000</ele>
<time>2016-06-25T15:02:51Z</time>
</trkpt>
<trkpt lat="44.717053430" lon="6.641720160">
  <ele>2059.100000</ele>
<time>2016-06-25T15:02:56Z</time>
</trkpt>
<trkpt lat="44.717130040" lon="6.641670030">
  <ele>2060.300000</ele>
<time>2016-06-25T15:03:03Z</time>
</trkpt>
<trkpt lat="44.717191730" lon="6.641596770">
  <ele>2061.600000</ele>
<time>2016-06-25T15:03:11Z</time>
</trkpt>
<trkpt lat="44.717265160" lon="6.641526700">
  <ele>2062.800000</ele>
<time>2016-06-25T15:03:21Z</time>
</trkpt>
<trkpt lat="44.717311760" lon="6.641421760">
  <ele>2064.100000</ele>
<time>2016-06-25T15:03:30Z</time>
</trkpt>
<trkpt lat="44.717370100" lon="6.641340120">
  <ele>2065.800000</ele>
<time>2016-06-25T15:03:37Z</time>
</trkpt>
<trkpt lat="44.717378480" lon="6.641325030">
  <ele>2066.000000</ele>
<time>2016-06-25T15:03:38Z</time>
</trkpt>
<trkpt lat="44.717455090" lon="6.641140130">
  <ele>2070.100000</ele>
<time>2016-06-25T15:03:52Z</time>
</trkpt>
<trkpt lat="44.717486780" lon="6.641028480">
  <ele>2072.300000</ele>
<time>2016-06-25T15:04:01Z</time>
</trkpt>
<trkpt lat="44.717521810" lon="6.640925050">
  <ele>2073.600000</ele>
<time>2016-06-25T15:04:08Z</time>
</trkpt>
<trkpt lat="44.717560030" lon="6.640820110">
  <ele>2075.800000</ele>
<time>2016-06-25T15:04:15Z</time>
</trkpt>
<trkpt lat="44.717576800" lon="6.640700080">
  <ele>2078.300000</ele>
<time>2016-06-25T15:04:23Z</time>
</trkpt>
<trkpt lat="44.717623400" lon="6.640605030">
  <ele>2081.100000</ele>
<time>2016-06-25T15:04:32Z</time>
</trkpt>
<trkpt lat="44.717635130" lon="6.640481810">
  <ele>2083.300000</ele>
<time>2016-06-25T15:04:40Z</time>
</trkpt>
<trkpt lat="44.717633460" lon="6.640463370">
  <ele>2083.600000</ele>
<time>2016-06-25T15:04:41Z</time>
</trkpt>
<trkpt lat="44.717663470" lon="6.640248460">
  <ele>2087.300000</ele>
<time>2016-06-25T15:04:56Z</time>
</trkpt>
<trkpt lat="44.717666820" lon="6.640136810">
  <ele>2089.300000</ele>
<time>2016-06-25T15:05:03Z</time>
</trkpt>
<trkpt lat="44.717680060" lon="6.640013430">
  <ele>2090.800000</ele>
<time>2016-06-25T15:05:10Z</time>
</trkpt>
<trkpt lat="44.717700010" lon="6.639890050">
  <ele>2092.600000</ele>
<time>2016-06-25T15:05:29Z</time>
</trkpt>
<trkpt lat="44.717701690" lon="6.639775050">
  <ele>2092.600000</ele>
<time>2016-06-25T15:05:37Z</time>
</trkpt>
<trkpt lat="44.717683410" lon="6.639670110">
  <ele>2092.800000</ele>
<time>2016-06-25T15:05:43Z</time>
</trkpt>
<trkpt lat="44.717673360" lon="6.639648480">
  <ele>2092.600000</ele>
<time>2016-06-25T15:05:44Z</time>
</trkpt>
<trkpt lat="44.717648380" lon="6.639438430">
  <ele>2092.600000</ele>
<time>2016-06-25T15:05:57Z</time>
</trkpt>
<trkpt lat="44.717636810" lon="6.639325110">
  <ele>2093.100000</ele>
<time>2016-06-25T15:06:05Z</time>
</trkpt>
<trkpt lat="44.717653410" lon="6.639218490">
  <ele>2091.600000</ele>
<time>2016-06-25T15:06:28Z</time>
</trkpt>
<trkpt lat="44.717706720" lon="6.639121770">
  <ele>2091.300000</ele>
<time>2016-06-25T15:06:36Z</time>
</trkpt>
<trkpt lat="44.717778470" lon="6.639053370">
  <ele>2090.300000</ele>
<time>2016-06-25T15:06:44Z</time>
</trkpt>
<trkpt lat="44.717790030" lon="6.639045160">
  <ele>2090.100000</ele>
<time>2016-06-25T15:06:45Z</time>
</trkpt>
<trkpt lat="44.717930010" lon="6.638961670">
  <ele>2089.100000</ele>
<time>2016-06-25T15:06:59Z</time>
</trkpt>
<trkpt lat="44.717916770" lon="6.639080020">
  <ele>2095.300000</ele>
<time>2016-06-25T15:08:03Z</time>
</trkpt>
<trkpt lat="44.717915090" lon="6.639091760">
  <ele>2095.300000</ele>
<time>2016-06-25T15:08:04Z</time>
</trkpt>
<trkpt lat="44.717935040" lon="6.639305160">
  <ele>2096.800000</ele>
<time>2016-06-25T15:08:22Z</time>
</trkpt>
<trkpt lat="44.717925150" lon="6.639421670">
  <ele>2097.600000</ele>
<time>2016-06-25T15:08:31Z</time>
</trkpt>
<trkpt lat="44.717943420" lon="6.639543380">
  <ele>2098.600000</ele>
<time>2016-06-25T15:08:43Z</time>
</trkpt>
<trkpt lat="44.717973430" lon="6.639653350">
  <ele>2099.100000</ele>
<time>2016-06-25T15:08:54Z</time>
</trkpt>
<trkpt lat="44.718008460" lon="6.639761810">
  <ele>2100.000000</ele>
<time>2016-06-25T15:09:05Z</time>
</trkpt>
<trkpt lat="44.718010140" lon="6.639771700">
  <ele>2100.100000</ele>
<time>2016-06-25T15:09:06Z</time>
</trkpt>
<trkpt lat="44.718075020" lon="6.639990130">
  <ele>2100.500000</ele>
<time>2016-06-25T15:09:29Z</time>
</trkpt>
<trkpt lat="44.718115080" lon="6.640093400">
  <ele>2099.500000</ele>
<time>2016-06-25T15:09:40Z</time>
</trkpt>
<trkpt lat="44.718158330" lon="6.640198340">
  <ele>2099.600000</ele>
<time>2016-06-25T15:09:47Z</time>
</trkpt>
<trkpt lat="44.718198400" lon="6.640308480">
  <ele>2101.100000</ele>
<time>2016-06-25T15:09:55Z</time>
</trkpt>
<trkpt lat="44.718220020" lon="6.640415090">
  <ele>2102.600000</ele>
<time>2016-06-25T15:10:02Z</time>
</trkpt>
<trkpt lat="44.718236790" lon="6.640526740">
  <ele>2106.100000</ele>
<time>2016-06-25T15:10:10Z</time>
</trkpt>
<trkpt lat="44.718241820" lon="6.640541830">
  <ele>2106.800000</ele>
<time>2016-06-25T15:10:11Z</time>
</trkpt>
<trkpt lat="44.718230080" lon="6.640765120">
  <ele>2112.100000</ele>
<time>2016-06-25T15:10:50Z</time>
</trkpt>
<trkpt lat="44.718236790" lon="6.640880120">
  <ele>2113.300000</ele>
<time>2016-06-25T15:10:58Z</time>
</trkpt>
<trkpt lat="44.718223380" lon="6.640998470">
  <ele>2115.000000</ele>
<time>2016-06-25T15:11:05Z</time>
</trkpt>
<trkpt lat="44.718223380" lon="6.641113470">
  <ele>2117.600000</ele>
<time>2016-06-25T15:11:14Z</time>
</trkpt>
<trkpt lat="44.718221700" lon="6.641125040">
  <ele>2117.800000</ele>
<time>2016-06-25T15:11:15Z</time>
</trkpt>
<trkpt lat="44.718185160" lon="6.641335090">
  <ele>2121.000000</ele>
<time>2016-06-25T15:11:31Z</time>
</trkpt>
<trkpt lat="44.718166720" lon="6.641458470">
  <ele>2122.600000</ele>
<time>2016-06-25T15:11:39Z</time>
</trkpt>
<trkpt lat="44.718153470" lon="6.641571800">
  <ele>2125.000000</ele>
<time>2016-06-25T15:11:49Z</time>
</trkpt>
<trkpt lat="44.718101670" lon="6.641660140">
  <ele>2126.100000</ele>
<time>2016-06-25T15:11:56Z</time>
</trkpt>
<trkpt lat="44.718071660" lon="6.641771790">
  <ele>2126.500000</ele>
<time>2016-06-25T15:12:03Z</time>
</trkpt>
<trkpt lat="44.718050040" lon="6.641881760">
  <ele>2126.800000</ele>
<time>2016-06-25T15:12:10Z</time>
</trkpt>
<trkpt lat="44.718040150" lon="6.642000110">
  <ele>2127.600000</ele>
<time>2016-06-25T15:12:18Z</time>
</trkpt>
<trkpt lat="44.718036800" lon="6.642011680">
  <ele>2127.800000</ele>
<time>2016-06-25T15:12:19Z</time>
</trkpt>
<trkpt lat="44.717970080" lon="6.642206810">
  <ele>2130.100000</ele>
<time>2016-06-25T15:12:35Z</time>
</trkpt>
<trkpt lat="44.717948450" lon="6.642325160">
  <ele>2131.100000</ele>
<time>2016-06-25T15:12:43Z</time>
</trkpt>
<trkpt lat="44.717923470" lon="6.642440160">
  <ele>2131.300000</ele>
<time>2016-06-25T15:12:51Z</time>
</trkpt>
<trkpt lat="44.717896820" lon="6.642546780">
  <ele>2131.800000</ele>
<time>2016-06-25T15:12:59Z</time>
</trkpt>
<trkpt lat="44.717880050" lon="6.642656750">
  <ele>2132.000000</ele>
<time>2016-06-25T15:13:36Z</time>
</trkpt>
<trkpt lat="44.717871670" lon="6.642678380">
  <ele>2131.500000</ele>
<time>2016-06-25T15:13:37Z</time>
</trkpt>
<trkpt lat="44.717898490" lon="6.642886750">
  <ele>2131.300000</ele>
<time>2016-06-25T15:14:10Z</time>
</trkpt>
<trkpt lat="44.717918440" lon="6.643010130">
  <ele>2129.500000</ele>
<time>2016-06-25T15:14:18Z</time>
</trkpt>
<trkpt lat="44.717940070" lon="6.643126810">
  <ele>2130.100000</ele>
<time>2016-06-25T15:14:26Z</time>
</trkpt>
<trkpt lat="44.717973430" lon="6.643235100">
  <ele>2130.300000</ele>
<time>2016-06-25T15:14:34Z</time>
</trkpt>
<trkpt lat="44.718020030" lon="6.643331830">
  <ele>2130.600000</ele>
<time>2016-06-25T15:14:41Z</time>
</trkpt>
<trkpt lat="44.718026740" lon="6.643346750">
  <ele>2130.800000</ele>
<time>2016-06-25T15:14:42Z</time>
</trkpt>
<trkpt lat="44.718128490" lon="6.643515060">
  <ele>2132.300000</ele>
<time>2016-06-25T15:14:54Z</time>
</trkpt>
<trkpt lat="44.718171740" lon="6.643623350">
  <ele>2133.800000</ele>
<time>2016-06-25T15:15:03Z</time>
</trkpt>
<trkpt lat="44.718213490" lon="6.643728460">
  <ele>2134.000000</ele>
<time>2016-06-25T15:15:14Z</time>
</trkpt>
<trkpt lat="44.718255060" lon="6.643830050">
  <ele>2134.300000</ele>
<time>2016-06-25T15:15:22Z</time>
</trkpt>
<trkpt lat="44.718276690" lon="6.643943370">
  <ele>2136.100000</ele>
<time>2016-06-25T15:15:31Z</time>
</trkpt>
<trkpt lat="44.718298480" lon="6.644055020">
  <ele>2137.800000</ele>
<time>2016-06-25T15:15:41Z</time>
</trkpt>
<trkpt lat="44.718310050" lon="6.644180080">
  <ele>2140.800000</ele>
<time>2016-06-25T15:15:52Z</time>
</trkpt>
<trkpt lat="44.718310050" lon="6.644191810">
  <ele>2141.100000</ele>
<time>2016-06-25T15:15:53Z</time>
</trkpt>
<trkpt lat="44.718358490" lon="6.644410080">
  <ele>2147.300000</ele>
<time>2016-06-25T15:16:13Z</time>
</trkpt>
<trkpt lat="44.718376770" lon="6.644521720">
  <ele>2149.100000</ele>
<time>2016-06-25T15:16:21Z</time>
</trkpt>
<trkpt lat="44.718411800" lon="6.644636720">
  <ele>2150.800000</ele>
<time>2016-06-25T15:16:59Z</time>
</trkpt>
<trkpt lat="44.718415150" lon="6.644648460">
  <ele>2150.800000</ele>
<time>2016-06-25T15:17:00Z</time>
</trkpt>
<trkpt lat="44.718481710" lon="6.644861690">
  <ele>2152.800000</ele>
<time>2016-06-25T15:17:16Z</time>
</trkpt>
<trkpt lat="44.718520100" lon="6.644975020">
  <ele>2154.000000</ele>
<time>2016-06-25T15:17:23Z</time>
</trkpt>
<trkpt lat="44.718551780" lon="6.645093370">
  <ele>2155.300000</ele>
<time>2016-06-25T15:17:31Z</time>
</trkpt>
<trkpt lat="44.718601740" lon="6.645188420">
  <ele>2156.100000</ele>
<time>2016-06-25T15:17:39Z</time>
</trkpt>
<trkpt lat="44.718623360" lon="6.645078450">
  <ele>2156.300000</ele>
<time>2016-06-25T15:17:48Z</time>
</trkpt>
<trkpt lat="44.718611790" lon="6.644958420">
  <ele>2156.300000</ele>
<time>2016-06-25T15:18:08Z</time>
</trkpt>
<trkpt lat="44.718613470" lon="6.644936800">
  <ele>2156.600000</ele>
<time>2016-06-25T15:18:09Z</time>
</trkpt>
<trkpt lat="44.718623360" lon="6.644733450">
  <ele>2159.000000</ele>
<time>2016-06-25T15:18:20Z</time>
</trkpt>
<trkpt lat="44.718628390" lon="6.644611740">
  <ele>2161.300000</ele>
<time>2016-06-25T15:18:28Z</time>
</trkpt>
<trkpt lat="44.718633420" lon="6.644496750">
  <ele>2164.500000</ele>
<time>2016-06-25T15:18:36Z</time>
</trkpt>
<trkpt lat="44.718641800" lon="6.644386770">
  <ele>2166.100000</ele>
<time>2016-06-25T15:18:42Z</time>
</trkpt>
<trkpt lat="44.718666780" lon="6.644268420">
  <ele>2168.000000</ele>
<time>2016-06-25T15:18:48Z</time>
</trkpt>
<trkpt lat="44.718675160" lon="6.644156780">
  <ele>2169.800000</ele>
<time>2016-06-25T15:18:53Z</time>
</trkpt>
<trkpt lat="44.718706680" lon="6.644045130">
  <ele>2172.100000</ele>
<time>2016-06-25T15:19:01Z</time>
</trkpt>
<trkpt lat="44.718731820" lon="6.643931800">
  <ele>2174.600000</ele>
<time>2016-06-25T15:19:08Z</time>
</trkpt>
<trkpt lat="44.718728470" lon="6.643810100">
  <ele>2176.800000</ele>
<time>2016-06-25T15:19:17Z</time>
</trkpt>
<trkpt lat="44.718726790" lon="6.643786800">
  <ele>2177.000000</ele>
<time>2016-06-25T15:19:18Z</time>
</trkpt>
<trkpt lat="44.718723440" lon="6.643573390">
  <ele>2180.600000</ele>
<time>2016-06-25T15:19:31Z</time>
</trkpt>
<trkpt lat="44.718696790" lon="6.643466780">
  <ele>2181.800000</ele>
<time>2016-06-25T15:19:37Z</time>
</trkpt>
<trkpt lat="44.718698460" lon="6.643343400">
  <ele>2182.100000</ele>
<time>2016-06-25T15:19:45Z</time>
</trkpt>
<trkpt lat="44.718685050" lon="6.643223370">
  <ele>2182.000000</ele>
<time>2016-06-25T15:19:53Z</time>
</trkpt>
<trkpt lat="44.718718410" lon="6.643121780">
  <ele>2181.600000</ele>
<time>2016-06-25T15:20:01Z</time>
</trkpt>
<trkpt lat="44.718786810" lon="6.643188330">
  <ele>2179.100000</ele>
<time>2016-06-25T15:20:07Z</time>
</trkpt>
<trkpt lat="44.718841790" lon="6.643288410">
  <ele>2178.800000</ele>
<time>2016-06-25T15:20:16Z</time>
</trkpt>
<trkpt lat="44.718895100" lon="6.643385140">
  <ele>2178.600000</ele>
<time>2016-06-25T15:20:22Z</time>
</trkpt>
<trkpt lat="44.718898460" lon="6.643395030">
  <ele>2178.800000</ele>
<time>2016-06-25T15:20:23Z</time>
</trkpt>
<trkpt lat="44.718980100" lon="6.643601730">
  <ele>2180.600000</ele>
<time>2016-06-25T15:20:42Z</time>
</trkpt>
<trkpt lat="44.719028370" lon="6.643703480">
  <ele>2181.800000</ele>
<time>2016-06-25T15:20:51Z</time>
</trkpt>
<trkpt lat="44.719070120" lon="6.643810100">
  <ele>2182.600000</ele>
<time>2016-06-25T15:21:00Z</time>
</trkpt>
<trkpt lat="44.719120070" lon="6.643911690">
  <ele>2184.000000</ele>
<time>2016-06-25T15:21:14Z</time>
</trkpt>
<trkpt lat="44.719168350" lon="6.644011770">
  <ele>2184.800000</ele>
<time>2016-06-25T15:21:22Z</time>
</trkpt>
<trkpt lat="44.719206740" lon="6.644113360">
  <ele>2186.600000</ele>
<time>2016-06-25T15:21:29Z</time>
</trkpt>
<trkpt lat="44.719213450" lon="6.644123420">
  <ele>2186.800000</ele>
<time>2016-06-25T15:21:30Z</time>
</trkpt>
<trkpt lat="44.719291730" lon="6.644313350">
  <ele>2189.600000</ele>
<time>2016-06-25T15:21:43Z</time>
</trkpt>
<trkpt lat="44.719333480" lon="6.644415110">
  <ele>2190.800000</ele>
<time>2016-06-25T15:21:50Z</time>
</trkpt>
<trkpt lat="44.719375050" lon="6.644521720">
  <ele>2192.300000</ele>
<time>2016-06-25T15:21:56Z</time>
</trkpt>
<trkpt lat="44.719435060" lon="6.644605040">
  <ele>2194.100000</ele>
<time>2016-06-25T15:22:03Z</time>
</trkpt>
<trkpt lat="44.719490050" lon="6.644696740">
  <ele>2196.100000</ele>
<time>2016-06-25T15:22:11Z</time>
</trkpt>
<trkpt lat="44.719535140" lon="6.644805030">
  <ele>2197.300000</ele>
<time>2016-06-25T15:22:19Z</time>
</trkpt>
<trkpt lat="44.719558450" lon="6.644916680">
  <ele>2199.300000</ele>
<time>2016-06-25T15:22:27Z</time>
</trkpt>
<trkpt lat="44.719585100" lon="6.645021790">
  <ele>2200.300000</ele>
<time>2016-06-25T15:22:34Z</time>
</trkpt>
<trkpt lat="44.719590130" lon="6.645036710">
  <ele>2200.600000</ele>
<time>2016-06-25T15:22:35Z</time>
</trkpt>
<trkpt lat="44.719666740" lon="6.645220100">
  <ele>2204.500000</ele>
<time>2016-06-25T15:22:50Z</time>
</trkpt>
<trkpt lat="44.719718370" lon="6.645321690">
  <ele>2207.800000</ele>
<time>2016-06-25T15:22:59Z</time>
</trkpt>
<trkpt lat="44.719770010" lon="6.645408360">
  <ele>2210.000000</ele>
<time>2016-06-25T15:23:07Z</time>
</trkpt>
<trkpt lat="44.719818450" lon="6.645510120">
  <ele>2211.800000</ele>
<time>2016-06-25T15:23:15Z</time>
</trkpt>
<trkpt lat="44.719858350" lon="6.645611710">
  <ele>2214.100000</ele>
<time>2016-06-25T15:23:25Z</time>
</trkpt>
<trkpt lat="44.719888360" lon="6.645723350">
  <ele>2216.100000</ele>
<time>2016-06-25T15:23:34Z</time>
</trkpt>
<trkpt lat="44.719920040" lon="6.645841710">
  <ele>2218.000000</ele>
<time>2016-06-25T15:23:45Z</time>
</trkpt>
<trkpt lat="44.719923390" lon="6.645851760">
  <ele>2218.100000</ele>
<time>2016-06-25T15:23:46Z</time>
</trkpt>
<trkpt lat="44.720025150" lon="6.646026780">
  <ele>2221.500000</ele>
<time>2016-06-25T15:24:03Z</time>
</trkpt>
<trkpt lat="44.720070080" lon="6.646135070">
  <ele>2221.800000</ele>
<time>2016-06-25T15:24:12Z</time>
</trkpt>
<trkpt lat="44.720090030" lon="6.646256780">
  <ele>2221.800000</ele>
<time>2016-06-25T15:24:21Z</time>
</trkpt>
<trkpt lat="44.720133440" lon="6.646366750">
  <ele>2223.300000</ele>
<time>2016-06-25T15:24:30Z</time>
</trkpt>
<trkpt lat="44.720173340" lon="6.646468340">
  <ele>2225.500000</ele>
<time>2016-06-25T15:24:39Z</time>
</trkpt>
<trkpt lat="44.720211730" lon="6.646578470">
  <ele>2227.000000</ele>
<time>2016-06-25T15:24:49Z</time>
</trkpt>
<trkpt lat="44.720218440" lon="6.646593390">
  <ele>2227.100000</ele>
<time>2016-06-25T15:24:50Z</time>
</trkpt>
<trkpt lat="44.720265040" lon="6.646363390">
  <ele>2228.000000</ele>
<time>2016-06-25T15:25:13Z</time>
</trkpt>
<trkpt lat="44.720265040" lon="6.646245040">
  <ele>2228.600000</ele>
<time>2016-06-25T15:25:18Z</time>
</trkpt>
<trkpt lat="44.720261690" lon="6.646138420">
  <ele>2229.600000</ele>
<time>2016-06-25T15:25:24Z</time>
</trkpt>
<trkpt lat="44.720255150" lon="6.646023420">
  <ele>2230.100000</ele>
<time>2016-06-25T15:25:31Z</time>
</trkpt>
<trkpt lat="44.720260010" lon="6.645906750">
  <ele>2230.000000</ele>
<time>2016-06-25T15:25:38Z</time>
</trkpt>
<trkpt lat="44.720251800" lon="6.645786720">
  <ele>2230.100000</ele>
<time>2016-06-25T15:25:44Z</time>
</trkpt>
<trkpt lat="44.720236710" lon="6.645663340">
  <ele>2230.600000</ele>
<time>2016-06-25T15:25:51Z</time>
</trkpt>
<trkpt lat="44.720233360" lon="6.645641710">
  <ele>2230.800000</ele>
<time>2016-06-25T15:25:52Z</time>
</trkpt>
<trkpt lat="44.720246770" lon="6.645421770">
  <ele>2233.100000</ele>
<time>2016-06-25T15:26:08Z</time>
</trkpt>
<trkpt lat="44.720276780" lon="6.645323370">
  <ele>2233.600000</ele>
<time>2016-06-25T15:26:15Z</time>
</trkpt>
<trkpt lat="44.720301750" lon="6.645211720">
  <ele>2234.600000</ele>
<time>2016-06-25T15:26:22Z</time>
</trkpt>
<trkpt lat="44.720351710" lon="6.645315150">
  <ele>2233.300000</ele>
<time>2016-06-25T15:26:54Z</time>
</trkpt>
<trkpt lat="44.720353390" lon="6.645328400">
  <ele>2233.300000</ele>
<time>2016-06-25T15:26:55Z</time>
</trkpt>
<trkpt lat="44.720370150" lon="6.645080130">
  <ele>2231.600000</ele>
<time>2016-06-25T15:27:17Z</time>
</trkpt>
<trkpt lat="44.720356740" lon="6.644968480">
  <ele>2232.100000</ele>
<time>2016-06-25T15:27:25Z</time>
</trkpt>
<trkpt lat="44.720350030" lon="6.644843420">
  <ele>2231.800000</ele>
<time>2016-06-25T15:27:33Z</time>
</trkpt>
<trkpt lat="44.720360090" lon="6.644720040">
  <ele>2232.600000</ele>
<time>2016-06-25T15:27:41Z</time>
</trkpt>
<trkpt lat="44.720356740" lon="6.644603360">
  <ele>2232.300000</ele>
<time>2016-06-25T15:27:49Z</time>
</trkpt>
<trkpt lat="44.720338470" lon="6.644481830">
  <ele>2232.600000</ele>
<time>2016-06-25T15:28:03Z</time>
</trkpt>
<trkpt lat="44.720335110" lon="6.644470090">
  <ele>2232.600000</ele>
<time>2016-06-25T15:28:04Z</time>
</trkpt>
<trkpt lat="44.720291700" lon="6.644265070">
  <ele>2235.100000</ele>
<time>2016-06-25T15:28:19Z</time>
</trkpt>
<trkpt lat="44.720371830" lon="6.644301780">
  <ele>2234.600000</ele>
<time>2016-06-25T15:28:30Z</time>
</trkpt>
<trkpt lat="44.720446760" lon="6.644341680">
  <ele>2233.500000</ele>
<time>2016-06-25T15:28:38Z</time>
</trkpt>
<trkpt lat="44.720531750" lon="6.644368330">
  <ele>2232.500000</ele>
<time>2016-06-25T15:28:46Z</time>
</trkpt>
<trkpt lat="44.720608360" lon="6.644420130">
  <ele>2233.000000</ele>
<time>2016-06-25T15:28:54Z</time>
</trkpt>
<trkpt lat="44.720673410" lon="6.644488360">
  <ele>2234.300000</ele>
<time>2016-06-25T15:29:02Z</time>
</trkpt>
<trkpt lat="44.720750020" lon="6.644538490">
  <ele>2237.500000</ele>
<time>2016-06-25T15:29:11Z</time>
</trkpt>
<trkpt lat="44.720760080" lon="6.644540000">
  <ele>2237.800000</ele>
<time>2016-06-25T15:29:12Z</time>
</trkpt>
<trkpt lat="44.720890000" lon="6.644658350">
  <ele>2245.100000</ele>
<time>2016-06-25T15:29:28Z</time>
</trkpt>
<trkpt lat="44.720975160" lon="6.644698410">
  <ele>2246.800000</ele>
<time>2016-06-25T15:29:43Z</time>
</trkpt>
<trkpt lat="44.721051770" lon="6.644745020">
  <ele>2246.600000</ele>
<time>2016-06-25T15:29:52Z</time>
</trkpt>
<trkpt lat="44.721123350" lon="6.644820120">
  <ele>2246.600000</ele>
<time>2016-06-25T15:30:02Z</time>
</trkpt>
<trkpt lat="44.721203480" lon="6.644866720">
  <ele>2254.800000</ele>
<time>2016-06-25T15:30:24Z</time>
</trkpt>
<trkpt lat="44.721208340" lon="6.644870080">
  <ele>2254.800000</ele>
<time>2016-06-25T15:30:25Z</time>
</trkpt>
<trkpt lat="44.721353350" lon="6.644978370">
  <ele>2258.800000</ele>
<time>2016-06-25T15:30:44Z</time>
</trkpt>
<trkpt lat="44.721423420" lon="6.645033350">
  <ele>2259.100000</ele>
<time>2016-06-25T15:30:51Z</time>
</trkpt>
<trkpt lat="44.721501710" lon="6.645091690">
  <ele>2259.100000</ele>
<time>2016-06-25T15:30:59Z</time>
</trkpt>
<trkpt lat="44.721578480" lon="6.645151710">
  <ele>2259.300000</ele>
<time>2016-06-25T15:31:09Z</time>
</trkpt>
<trkpt lat="44.721635150" lon="6.645061690">
  <ele>2259.100000</ele>
<time>2016-06-25T15:31:22Z</time>
</trkpt>
<trkpt lat="44.721695160" lon="6.645140140">
  <ele>2258.100000</ele>
<time>2016-06-25T15:33:02Z</time>
</trkpt>
<trkpt lat="44.721698350" lon="6.645156740">
  <ele>2258.300000</ele>
<time>2016-06-25T15:33:03Z</time>
</trkpt>
<trkpt lat="44.721773450" lon="6.645351700">
  <ele>2264.500000</ele>
<time>2016-06-25T15:33:18Z</time>
</trkpt>
<trkpt lat="44.721845030" lon="6.645420100">
  <ele>2267.100000</ele>
<time>2016-06-25T15:33:26Z</time>
</trkpt>
<trkpt lat="44.721916780" lon="6.645476760">
  <ele>2267.000000</ele>
<time>2016-06-25T15:33:33Z</time>
</trkpt>
<trkpt lat="44.721988360" lon="6.645516820">
  <ele>2266.800000</ele>
<time>2016-06-25T15:33:40Z</time>
</trkpt>
<trkpt lat="44.722066810" lon="6.645578350">
  <ele>2263.100000</ele>
<time>2016-06-25T15:33:46Z</time>
</trkpt>
<trkpt lat="44.722138400" lon="6.645633330">
  <ele>2259.800000</ele>
<time>2016-06-25T15:33:52Z</time>
</trkpt>
<trkpt lat="44.722206790" lon="6.645688480">
  <ele>2257.800000</ele>
<time>2016-06-25T15:33:58Z</time>
</trkpt>
<trkpt lat="44.722278370" lon="6.645765090">
  <ele>2258.000000</ele>
<time>2016-06-25T15:34:04Z</time>
</trkpt>
<trkpt lat="44.722283400" lon="6.645778340">
  <ele>2258.000000</ele>
<time>2016-06-25T15:34:05Z</time>
</trkpt>
<trkpt lat="44.722405110" lon="6.645918480">
  <ele>2258.100000</ele>
<time>2016-06-25T15:34:16Z</time>
</trkpt>
<trkpt lat="44.722468480" lon="6.645985040">
  <ele>2257.100000</ele>
<time>2016-06-25T15:34:22Z</time>
</trkpt>
<trkpt lat="44.722546760" lon="6.646035160">
  <ele>2255.800000</ele>
<time>2016-06-25T15:34:29Z</time>
</trkpt>
<trkpt lat="44.722605100" lon="6.646071700">
  <ele>2255.800000</ele>
<time>2016-06-25T15:34:33Z</time>
</trkpt>
<trkpt lat="44.722678360" lon="6.646126690">
  <ele>2255.300000</ele>
<time>2016-06-25T15:34:38Z</time>
</trkpt>
<trkpt lat="44.722736700" lon="6.646201790">
  <ele>2253.100000</ele>
<time>2016-06-25T15:34:45Z</time>
</trkpt>
<trkpt lat="44.722811800" lon="6.646270020">
  <ele>2257.100000</ele>
<time>2016-06-25T15:35:22Z</time>
</trkpt>
<trkpt lat="44.722818340" lon="6.646285110">
  <ele>2257.800000</ele>
<time>2016-06-25T15:35:23Z</time>
</trkpt>
<trkpt lat="44.722928470" lon="6.646441680">
  <ele>2255.800000</ele>
<time>2016-06-25T15:35:35Z</time>
</trkpt>
<trkpt lat="44.722993350" lon="6.646516780">
  <ele>2256.100000</ele>
<time>2016-06-25T15:35:41Z</time>
</trkpt>
<trkpt lat="44.723058390" lon="6.646581830">
  <ele>2257.000000</ele>
<time>2016-06-25T15:35:46Z</time>
</trkpt>
<trkpt lat="44.723100140" lon="6.646690120">
  <ele>2257.600000</ele>
<time>2016-06-25T15:35:53Z</time>
</trkpt>
<trkpt lat="44.723156800" lon="6.646766730">
  <ele>2258.600000</ele>
<time>2016-06-25T15:36:00Z</time>
</trkpt>
<trkpt lat="44.723220000" lon="6.646828420">
  <ele>2259.100000</ele>
<time>2016-06-25T15:36:06Z</time>
</trkpt>
<trkpt lat="44.723301800" lon="6.646873350">
  <ele>2260.300000</ele>
<time>2016-06-25T15:36:11Z</time>
</trkpt>
<trkpt lat="44.723363500" lon="6.646948450">
  <ele>2262.300000</ele>
<time>2016-06-25T15:36:17Z</time>
</trkpt>
<trkpt lat="44.723423340" lon="6.647028420">
  <ele>2262.600000</ele>
<time>2016-06-25T15:36:23Z</time>
</trkpt>
<trkpt lat="44.723431720" lon="6.647036800">
  <ele>2262.800000</ele>
<time>2016-06-25T15:36:24Z</time>
</trkpt>
<trkpt lat="44.723571700" lon="6.647148440">
  <ele>2262.100000</ele>
<time>2016-06-25T15:36:35Z</time>
</trkpt>
<trkpt lat="44.723641770" lon="6.647206780">
  <ele>2260.800000</ele>
<time>2016-06-25T15:36:41Z</time>
</trkpt>
<trkpt lat="44.723706820" lon="6.647275010">
  <ele>2259.800000</ele>
<time>2016-06-25T15:36:46Z</time>
</trkpt>
<trkpt lat="44.723773370" lon="6.647335030">
  <ele>2259.800000</ele>
<time>2016-06-25T15:36:50Z</time>
</trkpt>
<trkpt lat="44.723836740" lon="6.647415160">
  <ele>2260.300000</ele>
<time>2016-06-25T15:36:58Z</time>
</trkpt>
<trkpt lat="44.723916700" lon="6.647468470">
  <ele>2261.300000</ele>
<time>2016-06-25T15:37:07Z</time>
</trkpt>
<trkpt lat="44.723998340" lon="6.647513390">
  <ele>2263.000000</ele>
<time>2016-06-25T15:37:14Z</time>
</trkpt>
<trkpt lat="44.724073440" lon="6.647563350">
  <ele>2263.800000</ele>
<time>2016-06-25T15:37:20Z</time>
</trkpt>
<trkpt lat="44.724156760" lon="6.647598380">
  <ele>2265.300000</ele>
<time>2016-06-25T15:37:26Z</time>
</trkpt>
<trkpt lat="44.724166820" lon="6.647601740">
  <ele>2265.600000</ele>
<time>2016-06-25T15:37:27Z</time>
</trkpt>
<trkpt lat="44.724310150" lon="6.647670130">
  <ele>2268.100000</ele>
<time>2016-06-25T15:37:39Z</time>
</trkpt>
<trkpt lat="44.724381730" lon="6.647701820">
  <ele>2269.100000</ele>
<time>2016-06-25T15:37:45Z</time>
</trkpt>
<trkpt lat="44.724470070" lon="6.647711710">
  <ele>2269.300000</ele>
<time>2016-06-25T15:37:52Z</time>
</trkpt>
<trkpt lat="44.724548360" lon="6.647733330">
  <ele>2271.300000</ele>
<time>2016-06-25T15:38:01Z</time>
</trkpt>
<trkpt lat="44.724628490" lon="6.647761660">
  <ele>2272.500000</ele>
<time>2016-06-25T15:38:09Z</time>
</trkpt>
<trkpt lat="44.724711810" lon="6.647771720">
  <ele>2274.000000</ele>
<time>2016-06-25T15:38:16Z</time>
</trkpt>
<trkpt lat="44.724798480" lon="6.647800050">
  <ele>2273.800000</ele>
<time>2016-06-25T15:38:24Z</time>
</trkpt>
<trkpt lat="44.724885150" lon="6.647780100">
  <ele>2273.100000</ele>
<time>2016-06-25T15:38:49Z</time>
</trkpt>
<trkpt lat="44.724896710" lon="6.647783460">
  <ele>2273.000000</ele>
<time>2016-06-25T15:38:50Z</time>
</trkpt>
<trkpt lat="44.725050100" lon="6.647766690">
  <ele>2269.600000</ele>
<time>2016-06-25T15:39:02Z</time>
</trkpt>
<trkpt lat="44.725133420" lon="6.647806760">
  <ele>2269.800000</ele>
<time>2016-06-25T15:39:08Z</time>
</trkpt>
<trkpt lat="44.725216730" lon="6.647838440">
  <ele>2270.100000</ele>
<time>2016-06-25T15:39:16Z</time>
</trkpt>
<trkpt lat="44.725298370" lon="6.647823350">
  <ele>2270.600000</ele>
<time>2016-06-25T15:39:22Z</time>
</trkpt>
<trkpt lat="44.725381690" lon="6.647805080">
  <ele>2273.100000</ele>
<time>2016-06-25T15:39:30Z</time>
</trkpt>
<trkpt lat="44.725461820" lon="6.647795020">
  <ele>2274.500000</ele>
<time>2016-06-25T15:39:36Z</time>
</trkpt>
<trkpt lat="44.725546810" lon="6.647785130">
  <ele>2275.300000</ele>
<time>2016-06-25T15:39:44Z</time>
</trkpt>
<trkpt lat="44.725630130" lon="6.647760160">
  <ele>2276.600000</ele>
<time>2016-06-25T15:39:51Z</time>
</trkpt>
<trkpt lat="44.725638340" lon="6.647756800">
  <ele>2276.600000</ele>
<time>2016-06-25T15:39:52Z</time>
</trkpt>
<trkpt lat="44.725798440" lon="6.647773400">
  <ele>2280.600000</ele>
<time>2016-06-25T15:40:11Z</time>
</trkpt>
<trkpt lat="44.725881750" lon="6.647795020">
  <ele>2283.300000</ele>
<time>2016-06-25T15:40:19Z</time>
</trkpt>
<trkpt lat="44.725966750" lon="6.647815140">
  <ele>2286.800000</ele>
<time>2016-06-25T15:40:26Z</time>
</trkpt>
<trkpt lat="44.726033470" lon="6.647893430">
  <ele>2291.100000</ele>
<time>2016-06-25T15:40:35Z</time>
</trkpt>
<trkpt lat="44.726095160" lon="6.647981770">
  <ele>2292.300000</ele>
<time>2016-06-25T15:40:52Z</time>
</trkpt>
<trkpt lat="44.726098340" lon="6.647995020">
  <ele>2292.500000</ele>
<time>2016-06-25T15:40:53Z</time>
</trkpt>
<trkpt lat="44.726158360" lon="6.648198360">
  <ele>2294.300000</ele>
<time>2016-06-25T15:41:07Z</time>
</trkpt>
<trkpt lat="44.726188360" lon="6.648306820">
  <ele>2295.800000</ele>
<time>2016-06-25T15:41:15Z</time>
</trkpt>
<trkpt lat="44.726198420" lon="6.648420150">
  <ele>2296.800000</ele>
<time>2016-06-25T15:41:23Z</time>
</trkpt>
<trkpt lat="44.726226750" lon="6.648531790">
  <ele>2298.500000</ele>
<time>2016-06-25T15:41:32Z</time>
</trkpt>
<trkpt lat="44.726266820" lon="6.648635060">
  <ele>2301.500000</ele>
<time>2016-06-25T15:41:41Z</time>
</trkpt>
<trkpt lat="44.726296830" lon="6.648743350">
  <ele>2304.100000</ele>
<time>2016-06-25T15:41:49Z</time>
</trkpt>
<trkpt lat="44.726341750" lon="6.648840080">
  <ele>2306.800000</ele>
<time>2016-06-25T15:41:58Z</time>
</trkpt>
<trkpt lat="44.726346780" lon="6.648851810">
  <ele>2306.800000</ele>
<time>2016-06-25T15:41:59Z</time>
</trkpt>
<trkpt lat="44.726405120" lon="6.649056670">
  <ele>2310.300000</ele>
<time>2016-06-25T15:42:16Z</time>
</trkpt>
<trkpt lat="44.726426750" lon="6.649175020">
  <ele>2311.300000</ele>
<time>2016-06-25T15:42:25Z</time>
</trkpt>
<trkpt lat="44.726453400" lon="6.649293370">
  <ele>2311.800000</ele>
<time>2016-06-25T15:42:33Z</time>
</trkpt>
<trkpt lat="44.726481730" lon="6.649408370">
  <ele>2312.500000</ele>
<time>2016-06-25T15:42:42Z</time>
</trkpt>
<trkpt lat="44.726461780" lon="6.649525050">
  <ele>2313.000000</ele>
<time>2016-06-25T15:42:51Z</time>
</trkpt>
<trkpt lat="44.726443340" lon="6.649633340">
  <ele>2314.300000</ele>
<time>2016-06-25T15:42:59Z</time>
</trkpt>
<trkpt lat="44.726441670" lon="6.649648430">
  <ele>2314.500000</ele>
<time>2016-06-25T15:43:00Z</time>
</trkpt>
<trkpt lat="44.726436800" lon="6.649876750">
  <ele>2316.300000</ele>
<time>2016-06-25T15:43:17Z</time>
</trkpt>
<trkpt lat="44.726448370" lon="6.649991750">
  <ele>2316.600000</ele>
<time>2016-06-25T15:43:24Z</time>
</trkpt>
<trkpt lat="44.726470000" lon="6.650100050">
  <ele>2318.100000</ele>
<time>2016-06-25T15:43:32Z</time>
</trkpt>
<trkpt lat="44.726483410" lon="6.650215050">
  <ele>2320.500000</ele>
<time>2016-06-25T15:43:39Z</time>
</trkpt>
<trkpt lat="44.726506710" lon="6.650315130">
  <ele>2322.600000</ele>
<time>2016-06-25T15:44:28Z</time>
</trkpt>
<trkpt lat="44.726516770" lon="6.650363410">
  <ele>2322.600000</ele>
<time>2016-06-25T15:44:29Z</time>
</trkpt>
<trkpt lat="44.726571750" lon="6.650521820">
  <ele>2324.500000</ele>
<time>2016-06-25T15:44:41Z</time>
</trkpt>
<trkpt lat="44.726618360" lon="6.650626770">
  <ele>2326.500000</ele>
<time>2016-06-25T15:44:50Z</time>
</trkpt>
<trkpt lat="44.726665130" lon="6.650726680">
  <ele>2329.100000</ele>
<time>2016-06-25T15:45:00Z</time>
</trkpt>
<trkpt lat="44.726693460" lon="6.650843350">
  <ele>2330.300000</ele>
<time>2016-06-25T15:45:09Z</time>
</trkpt>
<trkpt lat="44.726703350" lon="6.650963380">
  <ele>2330.100000</ele>
<time>2016-06-25T15:45:17Z</time>
</trkpt>
<trkpt lat="44.726725140" lon="6.651068490">
  <ele>2330.100000</ele>
<time>2016-06-25T15:45:23Z</time>
</trkpt>
<trkpt lat="44.726733360" lon="6.651183490">
  <ele>2331.100000</ele>
<time>2016-06-25T15:45:30Z</time>
</trkpt>
<trkpt lat="44.726731680" lon="6.651196740">
  <ele>2331.500000</ele>
<time>2016-06-25T15:45:31Z</time>
</trkpt>
<trkpt lat="44.726740060" lon="6.651426730">
  <ele>2334.800000</ele>
<time>2016-06-25T15:45:47Z</time>
</trkpt>
<trkpt lat="44.726750120" lon="6.651545090">
  <ele>2336.000000</ele>
<time>2016-06-25T15:45:54Z</time>
</trkpt>
<trkpt lat="44.726760010" lon="6.651665120">
  <ele>2338.600000</ele>
<time>2016-06-25T15:46:05Z</time>
</trkpt>
<trkpt lat="44.726781800" lon="6.651778440">
  <ele>2339.100000</ele>
<time>2016-06-25T15:46:17Z</time>
</trkpt>
<trkpt lat="44.726801750" lon="6.651900140">
  <ele>2340.300000</ele>
<time>2016-06-25T15:46:28Z</time>
</trkpt>
<trkpt lat="44.726816670" lon="6.652023360">
  <ele>2343.300000</ele>
<time>2016-06-25T15:46:44Z</time>
</trkpt>
<trkpt lat="44.726816670" lon="6.652031740">
  <ele>2343.300000</ele>
<time>2016-06-25T15:46:45Z</time>
</trkpt>
<trkpt lat="44.726790020" lon="6.652263420">
  <ele>2348.800000</ele>
<time>2016-06-25T15:47:15Z</time>
</trkpt>
<trkpt lat="44.726805100" lon="6.652378420">
  <ele>2355.600000</ele>
<time>2016-06-25T15:47:42Z</time>
</trkpt>
<trkpt lat="44.726888420" lon="6.652398370">
  <ele>2359.500000</ele>
<time>2016-06-25T15:48:48Z</time>
</trkpt>
<trkpt lat="44.726895130" lon="6.652390150">
  <ele>2360.000000</ele>
<time>2016-06-25T15:48:49Z</time>
</trkpt>
<trkpt lat="44.727003420" lon="6.652220000">
  <ele>2364.500000</ele>
<time>2016-06-25T15:49:07Z</time>
</trkpt>
<trkpt lat="44.727081710" lon="6.652186810">
  <ele>2366.800000</ele>
<time>2016-06-25T15:49:16Z</time>
</trkpt>
<trkpt lat="44.727168380" lon="6.652161830">
  <ele>2370.600000</ele>
<time>2016-06-25T15:49:28Z</time>
</trkpt>
<trkpt lat="44.727245150" lon="6.652106670">
  <ele>2374.100000</ele>
<time>2016-06-25T15:49:40Z</time>
</trkpt>
<trkpt lat="44.727286730" lon="6.652003410">
  <ele>2376.600000</ele>
<time>2016-06-25T15:49:50Z</time>
</trkpt>
<trkpt lat="44.727291760" lon="6.651991680">
  <ele>2377.000000</ele>
<time>2016-06-25T15:49:51Z</time>
</trkpt>
<trkpt lat="44.727370040" lon="6.651803420">
  <ele>2380.100000</ele>
<time>2016-06-25T15:50:09Z</time>
</trkpt>
<trkpt lat="44.727400050" lon="6.651693450">
  <ele>2380.800000</ele>
<time>2016-06-25T15:50:18Z</time>
</trkpt>
<trkpt lat="44.727475150" lon="6.651655060">
  <ele>2382.600000</ele>
<time>2016-06-25T15:50:28Z</time>
</trkpt>
<trkpt lat="44.727558470" lon="6.651646680">
  <ele>2385.100000</ele>
<time>2016-06-25T15:50:41Z</time>
</trkpt>
<trkpt lat="44.727643460" lon="6.651670150">
  <ele>2388.600000</ele>
<time>2016-06-25T15:50:58Z</time>
</trkpt>
<trkpt lat="44.727648490" lon="6.651673330">
  <ele>2388.800000</ele>
<time>2016-06-25T15:50:59Z</time>
</trkpt>
<trkpt lat="44.727778410" lon="6.651511730">
  <ele>2392.600000</ele>
<time>2016-06-25T15:51:24Z</time>
</trkpt>
<trkpt lat="44.727866760" lon="6.651493450">
  <ele>2394.300000</ele>
<time>2016-06-25T15:51:41Z</time>
</trkpt>
<trkpt lat="44.727930120" lon="6.651410140">
  <ele>2396.000000</ele>
<time>2016-06-25T15:52:02Z</time>
</trkpt>
<trkpt lat="44.727933480" lon="6.651405110">
  <ele>2396.100000</ele>
<time>2016-06-25T15:52:03Z</time>
</trkpt>
<trkpt lat="44.727836750" lon="6.651436790">
  <ele>2394.800000</ele>
<time>2016-06-25T15:54:36Z</time>
</trkpt>
<trkpt lat="44.727730130" lon="6.651595040">
  <ele>2392.600000</ele>
<time>2016-06-25T15:55:08Z</time>
</trkpt>
<trkpt lat="44.727645140" lon="6.651626730">
  <ele>2389.800000</ele>
<time>2016-06-25T15:55:19Z</time>
</trkpt>
<trkpt lat="44.727556790" lon="6.651635110">
  <ele>2384.300000</ele>
<time>2016-06-25T15:55:37Z</time>
</trkpt>
<trkpt lat="44.727548410" lon="6.651638460">
  <ele>2384.100000</ele>
<time>2016-06-25T15:55:38Z</time>
</trkpt>
<trkpt lat="44.727413460" lon="6.651753460">
  <ele>2380.100000</ele>
<time>2016-06-25T15:56:00Z</time>
</trkpt>
<trkpt lat="44.727350100" lon="6.651841810">
  <ele>2378.300000</ele>
<time>2016-06-25T15:56:11Z</time>
</trkpt>
<trkpt lat="44.727293430" lon="6.651933340">
  <ele>2376.500000</ele>
<time>2016-06-25T15:56:22Z</time>
</trkpt>
<trkpt lat="44.727221690" lon="6.652001730">
  <ele>2374.100000</ele>
<time>2016-06-25T15:56:35Z</time>
</trkpt>
<trkpt lat="44.727166700" lon="6.652098460">
  <ele>2372.300000</ele>
<time>2016-06-25T15:56:47Z</time>
</trkpt>
<trkpt lat="44.727160160" lon="6.652103490">
  <ele>2372.100000</ele>
<time>2016-06-25T15:56:48Z</time>
</trkpt>
<trkpt lat="44.727046670" lon="6.652241790">
  <ele>2368.800000</ele>
<time>2016-06-25T15:57:20Z</time>
</trkpt>
<trkpt lat="44.726960000" lon="6.652275150">
  <ele>2366.600000</ele>
<time>2016-06-25T15:57:43Z</time>
</trkpt>
<trkpt lat="44.726890100" lon="6.652341700">
  <ele>2366.000000</ele>
<time>2016-06-25T15:57:51Z</time>
</trkpt>
<trkpt lat="44.726881720" lon="6.652356790">
  <ele>2365.800000</ele>
<time>2016-06-25T15:57:52Z</time>
</trkpt>
<trkpt lat="44.726790020" lon="6.652275150">
  <ele>2359.800000</ele>
<time>2016-06-25T15:58:18Z</time>
</trkpt>
<trkpt lat="44.726826730" lon="6.652173390">
  <ele>2357.100000</ele>
<time>2016-06-25T15:58:29Z</time>
</trkpt>
<trkpt lat="44.726816670" lon="6.652068450">
  <ele>2355.000000</ele>
<time>2016-06-25T15:58:35Z</time>
</trkpt>
<trkpt lat="44.726811810" lon="6.651943400">
  <ele>2351.100000</ele>
<time>2016-06-25T15:58:50Z</time>
</trkpt>
<trkpt lat="44.726820020" lon="6.651823370">
  <ele>2350.300000</ele>
<time>2016-06-25T15:59:02Z</time>
</trkpt>
<trkpt lat="44.726818350" lon="6.651806770">
  <ele>2350.100000</ele>
<time>2016-06-25T15:59:03Z</time>
</trkpt>
<trkpt lat="44.726786660" lon="6.651598400">
  <ele>2347.500000</ele>
<time>2016-06-25T15:59:15Z</time>
</trkpt>
<trkpt lat="44.726773420" lon="6.651475010">
  <ele>2345.100000</ele>
<time>2016-06-25T15:59:21Z</time>
</trkpt>
<trkpt lat="44.726763360" lon="6.651356660">
  <ele>2342.800000</ele>
<time>2016-06-25T15:59:29Z</time>
</trkpt>
<trkpt lat="44.726753470" lon="6.651235120">
  <ele>2341.300000</ele>
<time>2016-06-25T15:59:39Z</time>
</trkpt>
<trkpt lat="44.726730000" lon="6.651120120">
  <ele>2340.300000</ele>
<time>2016-06-25T15:59:47Z</time>
</trkpt>
<trkpt lat="44.726738380" lon="6.651005130">
  <ele>2339.600000</ele>
<time>2016-06-25T15:59:52Z</time>
</trkpt>
<trkpt lat="44.726731680" lon="6.650896660">
  <ele>2338.300000</ele>
<time>2016-06-25T15:59:59Z</time>
</trkpt>
<trkpt lat="44.726725140" lon="6.650773450">
  <ele>2337.000000</ele>
<time>2016-06-25T16:00:06Z</time>
</trkpt>
<trkpt lat="44.726718440" lon="6.650745120">
  <ele>2336.800000</ele>
<time>2016-06-25T16:00:07Z</time>
</trkpt>
<trkpt lat="44.726653390" lon="6.650571780">
  <ele>2336.300000</ele>
<time>2016-06-25T16:00:17Z</time>
</trkpt>
<trkpt lat="44.726616680" lon="6.650468350">
  <ele>2335.100000</ele>
<time>2016-06-25T16:00:23Z</time>
</trkpt>
<trkpt lat="44.726573430" lon="6.650363410">
  <ele>2333.100000</ele>
<time>2016-06-25T16:00:29Z</time>
</trkpt>
<trkpt lat="44.726535040" lon="6.650270030">
  <ele>2331.800000</ele>
<time>2016-06-25T16:00:36Z</time>
</trkpt>
<trkpt lat="44.726510060" lon="6.650153360">
  <ele>2330.500000</ele>
<time>2016-06-25T16:00:41Z</time>
</trkpt>
<trkpt lat="44.726490110" lon="6.650040030">
  <ele>2330.300000</ele>
<time>2016-06-25T16:00:46Z</time>
</trkpt>
<trkpt lat="44.726481730" lon="6.649918500">
  <ele>2327.600000</ele>
<time>2016-06-25T16:00:55Z</time>
</trkpt>
<trkpt lat="44.726478380" lon="6.649801820">
  <ele>2324.100000</ele>
<time>2016-06-25T16:01:02Z</time>
</trkpt>
<trkpt lat="44.726500000" lon="6.649685140">
  <ele>2321.600000</ele>
<time>2016-06-25T16:01:10Z</time>
</trkpt>
<trkpt lat="44.726496820" lon="6.649663350">
  <ele>2321.500000</ele>
<time>2016-06-25T16:01:11Z</time>
</trkpt>
<trkpt lat="44.726511740" lon="6.649458330">
  <ele>2319.800000</ele>
<time>2016-06-25T16:01:21Z</time>
</trkpt>
<trkpt lat="44.726528330" lon="6.649338470">
  <ele>2318.600000</ele>
<time>2016-06-25T16:01:28Z</time>
</trkpt>
<trkpt lat="44.726523470" lon="6.649215090">
  <ele>2317.100000</ele>
<time>2016-06-25T16:01:37Z</time>
</trkpt>
<trkpt lat="44.726490110" lon="6.649120040">
  <ele>2316.100000</ele>
<time>2016-06-25T16:01:44Z</time>
</trkpt>
<trkpt lat="44.726463460" lon="6.649016770">
  <ele>2315.100000</ele>
<time>2016-06-25T16:01:49Z</time>
</trkpt>
<trkpt lat="44.726418360" lon="6.648913340">
  <ele>2314.000000</ele>
<time>2016-06-25T16:01:55Z</time>
</trkpt>
<trkpt lat="44.726381820" lon="6.648818450">
  <ele>2312.800000</ele>
<time>2016-06-25T16:02:01Z</time>
</trkpt>
<trkpt lat="44.726336720" lon="6.648720050">
  <ele>2311.000000</ele>
<time>2016-06-25T16:02:07Z</time>
</trkpt>
<trkpt lat="44.726298330" lon="6.648611760">
  <ele>2309.600000</ele>
<time>2016-06-25T16:02:13Z</time>
</trkpt>
<trkpt lat="44.726290120" lon="6.648595160">
  <ele>2309.300000</ele>
<time>2016-06-25T16:02:14Z</time>
</trkpt>
<trkpt lat="44.726241670" lon="6.648388460">
  <ele>2305.800000</ele>
<time>2016-06-25T16:02:28Z</time>
</trkpt>
<trkpt lat="44.726215020" lon="6.648268430">
  <ele>2304.100000</ele>
<time>2016-06-25T16:02:38Z</time>
</trkpt>
<trkpt lat="44.726198420" lon="6.648153430">
  <ele>2301.800000</ele>
<time>2016-06-25T16:02:46Z</time>
</trkpt>
<trkpt lat="44.726153500" lon="6.648050000">
  <ele>2300.600000</ele>
<time>2016-06-25T16:02:52Z</time>
</trkpt>
<trkpt lat="44.726098340" lon="6.647951770">
  <ele>2297.300000</ele>
<time>2016-06-25T16:03:01Z</time>
</trkpt>
<trkpt lat="44.726046710" lon="6.647865100">
  <ele>2296.600000</ele>
<time>2016-06-25T16:03:22Z</time>
</trkpt>
<trkpt lat="44.726031790" lon="6.647851690">
  <ele>2296.600000</ele>
<time>2016-06-25T16:03:23Z</time>
</trkpt>
<trkpt lat="44.725905060" lon="6.647751770">
  <ele>2295.800000</ele>
<time>2016-06-25T16:03:33Z</time>
</trkpt>
<trkpt lat="44.725820060" lon="6.647735010">
  <ele>2295.100000</ele>
<time>2016-06-25T16:03:39Z</time>
</trkpt>
<trkpt lat="44.725731720" lon="6.647730150">
  <ele>2294.100000</ele>
<time>2016-06-25T16:03:46Z</time>
</trkpt>
<trkpt lat="44.725648400" lon="6.647745070">
  <ele>2293.100000</ele>
<time>2016-06-25T16:03:52Z</time>
</trkpt>
<trkpt lat="44.725586710" lon="6.647780100">
  <ele>2291.300000</ele>
<time>2016-06-25T16:03:58Z</time>
</trkpt>
<trkpt lat="44.725506750" lon="6.647775080">
  <ele>2290.300000</ele>
<time>2016-06-25T16:04:03Z</time>
</trkpt>
<trkpt lat="44.725423430" lon="6.647803410">
  <ele>2288.800000</ele>
<time>2016-06-25T16:04:12Z</time>
</trkpt>
<trkpt lat="44.725345140" lon="6.647821680">
  <ele>2287.800000</ele>
<time>2016-06-25T16:04:17Z</time>
</trkpt>
<trkpt lat="44.725256800" lon="6.647828380">
  <ele>2286.800000</ele>
<time>2016-06-25T16:04:23Z</time>
</trkpt>
<trkpt lat="44.725243390" lon="6.647830060">
  <ele>2286.500000</ele>
<time>2016-06-25T16:04:24Z</time>
</trkpt>
<trkpt lat="44.725105090" lon="6.647758480">
  <ele>2283.000000</ele>
<time>2016-06-25T16:04:35Z</time>
</trkpt>
<trkpt lat="44.725026800" lon="6.647731820">
  <ele>2282.100000</ele>
<time>2016-06-25T16:04:39Z</time>
</trkpt>
<trkpt lat="44.724941810" lon="6.647741720">
  <ele>2280.100000</ele>
<time>2016-06-25T16:04:47Z</time>
</trkpt>
<trkpt lat="44.724861680" lon="6.647741720">
  <ele>2278.100000</ele>
<time>2016-06-25T16:04:54Z</time>
</trkpt>
<trkpt lat="44.724773330" lon="6.647730150">
  <ele>2276.000000</ele>
<time>2016-06-25T16:05:02Z</time>
</trkpt>
<trkpt lat="44.724691690" lon="6.647708360">
  <ele>2274.800000</ele>
<time>2016-06-25T16:05:08Z</time>
</trkpt>
<trkpt lat="44.724603350" lon="6.647686730">
  <ele>2271.600000</ele>
<time>2016-06-25T16:05:18Z</time>
</trkpt>
<trkpt lat="44.724525060" lon="6.647675000">
  <ele>2270.100000</ele>
<time>2016-06-25T16:05:27Z</time>
</trkpt>
<trkpt lat="44.724513490" lon="6.647675000">
  <ele>2270.000000</ele>
<time>2016-06-25T16:05:28Z</time>
</trkpt>
<trkpt lat="44.724360100" lon="6.647626720">
  <ele>2267.800000</ele>
<time>2016-06-25T16:05:41Z</time>
</trkpt>
<trkpt lat="44.724285000" lon="6.647596710">
  <ele>2266.800000</ele>
<time>2016-06-25T16:05:46Z</time>
</trkpt>
<trkpt lat="44.724208390" lon="6.647560000">
  <ele>2266.600000</ele>
<time>2016-06-25T16:05:52Z</time>
</trkpt>
<trkpt lat="44.724138490" lon="6.647525130">
  <ele>2266.800000</ele>
<time>2016-06-25T16:05:56Z</time>
</trkpt>
<trkpt lat="44.724060030" lon="6.647465110">
  <ele>2266.800000</ele>
<time>2016-06-25T16:06:01Z</time>
</trkpt>
<trkpt lat="44.723986770" lon="6.647420020">
  <ele>2265.300000</ele>
<time>2016-06-25T16:06:11Z</time>
</trkpt>
<trkpt lat="44.723910000" lon="6.647380120">
  <ele>2265.100000</ele>
<time>2016-06-25T16:06:17Z</time>
</trkpt>
<trkpt lat="44.723840090" lon="6.647336700">
  <ele>2264.600000</ele>
<time>2016-06-25T16:06:22Z</time>
</trkpt>
<trkpt lat="44.723765160" lon="6.647285070">
  <ele>2265.500000</ele>
<time>2016-06-25T16:06:27Z</time>
</trkpt>
<trkpt lat="44.723700110" lon="6.647225050">
  <ele>2265.800000</ele>
<time>2016-06-25T16:06:32Z</time>
</trkpt>
<trkpt lat="44.723690050" lon="6.647208460">
  <ele>2266.000000</ele>
<time>2016-06-25T16:06:33Z</time>
</trkpt>
<trkpt lat="44.723568350" lon="6.647080050">
  <ele>2269.600000</ele>
<time>2016-06-25T16:06:48Z</time>
</trkpt>
<trkpt lat="44.723511690" lon="6.646981810">
  <ele>2269.800000</ele>
<time>2016-06-25T16:06:58Z</time>
</trkpt>
<trkpt lat="44.723455030" lon="6.646920120">
  <ele>2270.600000</ele>
<time>2016-06-25T16:07:02Z</time>
</trkpt>
<trkpt lat="44.723395010" lon="6.646836800">
  <ele>2272.100000</ele>
<time>2016-06-25T16:07:08Z</time>
</trkpt>
<trkpt lat="44.723340030" lon="6.646750140">
  <ele>2272.600000</ele>
<time>2016-06-25T16:07:14Z</time>
</trkpt>
<trkpt lat="44.723268440" lon="6.646688450">
  <ele>2273.100000</ele>
<time>2016-06-25T16:07:21Z</time>
</trkpt>
<trkpt lat="44.723201720" lon="6.646626750">
  <ele>2273.100000</ele>
<time>2016-06-25T16:07:26Z</time>
</trkpt>
<trkpt lat="44.723140030" lon="6.646558360">
  <ele>2274.100000</ele>
<time>2016-06-25T16:07:33Z</time>
</trkpt>
<trkpt lat="44.723131820" lon="6.646546790">
  <ele>2274.100000</ele>
<time>2016-06-25T16:07:34Z</time>
</trkpt>
<trkpt lat="44.723013470" lon="6.646420060">
  <ele>2273.000000</ele>
<time>2016-06-25T16:07:42Z</time>
</trkpt>
<trkpt lat="44.722943390" lon="6.646365070">
  <ele>2272.800000</ele>
<time>2016-06-25T16:07:49Z</time>
</trkpt>
<trkpt lat="44.722880030" lon="6.646305060">
  <ele>2273.300000</ele>
<time>2016-06-25T16:07:54Z</time>
</trkpt>
<trkpt lat="44.722820010" lon="6.646225090">
  <ele>2274.800000</ele>
<time>2016-06-25T16:08:04Z</time>
</trkpt>
<trkpt lat="44.722766700" lon="6.646155020">
  <ele>2274.800000</ele>
<time>2016-06-25T16:08:08Z</time>
</trkpt>
<trkpt lat="44.722703340" lon="6.646075060">
  <ele>2275.100000</ele>
<time>2016-06-25T16:08:14Z</time>
</trkpt>
<trkpt lat="44.722631750" lon="6.646008340">
  <ele>2275.500000</ele>
<time>2016-06-25T16:08:20Z</time>
</trkpt>
<trkpt lat="44.722553470" lon="6.645955030">
  <ele>2277.100000</ele>
<time>2016-06-25T16:08:27Z</time>
</trkpt>
<trkpt lat="44.722470150" lon="6.645916810">
  <ele>2278.600000</ele>
<time>2016-06-25T16:08:36Z</time>
</trkpt>
<trkpt lat="44.722465120" lon="6.645901720">
  <ele>2278.800000</ele>
<time>2016-06-25T16:08:37Z</time>
</trkpt>
<trkpt lat="44.722355150" lon="6.645746820">
  <ele>2278.100000</ele>
<time>2016-06-25T16:08:48Z</time>
</trkpt>
<trkpt lat="44.722285080" lon="6.645691670">
  <ele>2279.000000</ele>
<time>2016-06-25T16:08:56Z</time>
</trkpt>
<trkpt lat="44.722213330" lon="6.645621760">
  <ele>2279.500000</ele>
<time>2016-06-25T16:09:03Z</time>
</trkpt>
<trkpt lat="44.722140070" lon="6.645591760">
  <ele>2279.300000</ele>
<time>2016-06-25T16:09:09Z</time>
</trkpt>
<trkpt lat="44.722071680" lon="6.645543480">
  <ele>2278.800000</ele>
<time>2016-06-25T16:09:13Z</time>
</trkpt>
<trkpt lat="44.721995070" lon="6.645520010">
  <ele>2278.800000</ele>
<time>2016-06-25T16:09:19Z</time>
</trkpt>
<trkpt lat="44.721926670" lon="6.645476760">
  <ele>2278.600000</ele>
<time>2016-06-25T16:09:24Z</time>
</trkpt>
<trkpt lat="44.721856760" lon="6.645418420">
  <ele>2279.800000</ele>
<time>2016-06-25T16:09:30Z</time>
</trkpt>
<trkpt lat="44.721796750" lon="6.645346670">
  <ele>2279.300000</ele>
<time>2016-06-25T16:09:38Z</time>
</trkpt>
<trkpt lat="44.721790040" lon="6.645333430">
  <ele>2279.000000</ele>
<time>2016-06-25T16:09:39Z</time>
</trkpt>
<trkpt lat="44.721723490" lon="6.645123380">
  <ele>2275.300000</ele>
<time>2016-06-25T16:09:59Z</time>
</trkpt>
<trkpt lat="44.721640010" lon="6.645153380">
  <ele>2274.100000</ele>
<time>2016-06-25T16:10:12Z</time>
</trkpt>
<trkpt lat="44.721565070" lon="6.645113490">
  <ele>2273.300000</ele>
<time>2016-06-25T16:10:17Z</time>
</trkpt>
<trkpt lat="44.721481760" lon="6.645068390">
  <ele>2272.800000</ele>
<time>2016-06-25T16:10:22Z</time>
</trkpt>
<trkpt lat="44.721420070" lon="6.645003350">
  <ele>2271.600000</ele>
<time>2016-06-25T16:10:28Z</time>
</trkpt>
<trkpt lat="44.721346810" lon="6.644946690">
  <ele>2269.000000</ele>
<time>2016-06-25T16:10:36Z</time>
</trkpt>
<trkpt lat="44.721275060" lon="6.644890020">
  <ele>2267.600000</ele>
<time>2016-06-25T16:10:42Z</time>
</trkpt>
<trkpt lat="44.721263490" lon="6.644881810">
  <ele>2267.500000</ele>
<time>2016-06-25T16:10:43Z</time>
</trkpt>
<trkpt lat="44.721111780" lon="6.644808380">
  <ele>2265.100000</ele>
<time>2016-06-25T16:10:56Z</time>
</trkpt>
<trkpt lat="44.721031820" lon="6.644765130">
  <ele>2264.100000</ele>
<time>2016-06-25T16:11:02Z</time>
</trkpt>
<trkpt lat="44.720973480" lon="6.644700090">
  <ele>2263.100000</ele>
<time>2016-06-25T16:11:07Z</time>
</trkpt>
<trkpt lat="44.720913460" lon="6.644640080">
  <ele>2262.000000</ele>
<time>2016-06-25T16:11:12Z</time>
</trkpt>
<trkpt lat="44.720855130" lon="6.644565140">
  <ele>2259.800000</ele>
<time>2016-06-25T16:11:19Z</time>
</trkpt>
<trkpt lat="44.720770130" lon="6.644525080">
  <ele>2257.100000</ele>
<time>2016-06-25T16:11:27Z</time>
</trkpt>
<trkpt lat="44.720683470" lon="6.644501770">
  <ele>2254.800000</ele>
<time>2016-06-25T16:11:34Z</time>
</trkpt>
<trkpt lat="44.720603330" lon="6.644458360">
  <ele>2252.300000</ele>
<time>2016-06-25T16:11:41Z</time>
</trkpt>
<trkpt lat="44.720528400" lon="6.644406720">
  <ele>2250.800000</ele>
<time>2016-06-25T16:11:46Z</time>
</trkpt>
<trkpt lat="44.720516670" lon="6.644396670">
  <ele>2250.600000</ele>
<time>2016-06-25T16:11:47Z</time>
</trkpt>
<trkpt lat="44.720390100" lon="6.644280160">
  <ele>2247.600000</ele>
<time>2016-06-25T16:11:58Z</time>
</trkpt>
<trkpt lat="44.720363440" lon="6.644391800">
  <ele>2244.100000</ele>
<time>2016-06-25T16:12:14Z</time>
</trkpt>
<trkpt lat="44.720373330" lon="6.644516690">
  <ele>2241.800000</ele>
<time>2016-06-25T16:12:19Z</time>
</trkpt>
<trkpt lat="44.720385070" lon="6.644626660">
  <ele>2239.600000</ele>
<time>2016-06-25T16:12:24Z</time>
</trkpt>
<trkpt lat="44.720381720" lon="6.644748370">
  <ele>2238.000000</ele>
<time>2016-06-25T16:12:31Z</time>
</trkpt>
<trkpt lat="44.720376690" lon="6.644871750">
  <ele>2237.500000</ele>
<time>2016-06-25T16:12:38Z</time>
</trkpt>
<trkpt lat="44.720370150" lon="6.644988430">
  <ele>2236.800000</ele>
<time>2016-06-25T16:12:45Z</time>
</trkpt>
<trkpt lat="44.720365120" lon="6.645113490">
  <ele>2236.500000</ele>
<time>2016-06-25T16:12:52Z</time>
</trkpt>
<trkpt lat="44.720363440" lon="6.645135110">
  <ele>2236.500000</ele>
<time>2016-06-25T16:12:53Z</time>
</trkpt>
<trkpt lat="44.720321700" lon="6.645331750">
  <ele>2236.600000</ele>
<time>2016-06-25T16:13:18Z</time>
</trkpt>
<trkpt lat="44.720306780" lon="6.645446750">
  <ele>2236.600000</ele>
<time>2016-06-25T16:13:24Z</time>
</trkpt>
<trkpt lat="44.720298400" lon="6.645570130">
  <ele>2236.300000</ele>
<time>2016-06-25T16:13:30Z</time>
</trkpt>
<trkpt lat="44.720291700" lon="6.645681780">
  <ele>2236.100000</ele>
<time>2016-06-25T16:13:36Z</time>
</trkpt>
<trkpt lat="44.720300080" lon="6.645793430">
  <ele>2236.100000</ele>
<time>2016-06-25T16:13:42Z</time>
</trkpt>
<trkpt lat="44.720308460" lon="6.645915130">
  <ele>2236.000000</ele>
<time>2016-06-25T16:13:48Z</time>
</trkpt>
<trkpt lat="44.720311810" lon="6.646035160">
  <ele>2235.800000</ele>
<time>2016-06-25T16:13:53Z</time>
</trkpt>
<trkpt lat="44.720308460" lon="6.646055110">
  <ele>2235.800000</ele>
<time>2016-06-25T16:13:54Z</time>
</trkpt>
<trkpt lat="44.720281800" lon="6.646255100">
  <ele>2235.500000</ele>
<time>2016-06-25T16:14:05Z</time>
</trkpt>
<trkpt lat="44.720281800" lon="6.646363390">
  <ele>2235.600000</ele>
<time>2016-06-25T16:14:10Z</time>
</trkpt>
<trkpt lat="44.720281800" lon="6.646476720">
  <ele>2235.800000</ele>
<time>2016-06-25T16:14:15Z</time>
</trkpt>
<trkpt lat="44.720273420" lon="6.646593390">
  <ele>2236.500000</ele>
<time>2016-06-25T16:14:20Z</time>
</trkpt>
<trkpt lat="44.720218440" lon="6.646511750">
  <ele>2234.000000</ele>
<time>2016-06-25T16:14:34Z</time>
</trkpt>
<trkpt lat="44.720173340" lon="6.646426760">
  <ele>2233.100000</ele>
<time>2016-06-25T16:14:38Z</time>
</trkpt>
<trkpt lat="44.720135120" lon="6.646323330">
  <ele>2232.600000</ele>
<time>2016-06-25T16:14:42Z</time>
</trkpt>
<trkpt lat="44.720138470" lon="6.646198440">
  <ele>2230.500000</ele>
<time>2016-06-25T16:14:53Z</time>
</trkpt>
<trkpt lat="44.720118360" lon="6.646106740">
  <ele>2229.300000</ele>
<time>2016-06-25T16:14:57Z</time>
</trkpt>
<trkpt lat="44.720108470" lon="6.646073380">
  <ele>2229.300000</ele>
<time>2016-06-25T16:14:58Z</time>
</trkpt>
<trkpt lat="44.720033360" lon="6.645916810">
  <ele>2226.300000</ele>
<time>2016-06-25T16:15:06Z</time>
</trkpt>
<trkpt lat="44.719973350" lon="6.645836680">
  <ele>2223.800000</ele>
<time>2016-06-25T16:15:12Z</time>
</trkpt>
<trkpt lat="44.719931780" lon="6.645730060">
  <ele>2222.000000</ele>
<time>2016-06-25T16:15:18Z</time>
</trkpt>
<trkpt lat="44.719898420" lon="6.645613380">
  <ele>2218.600000</ele>
<time>2016-06-25T16:15:26Z</time>
</trkpt>
<trkpt lat="44.719858350" lon="6.645541800">
  <ele>2217.300000</ele>
<time>2016-06-25T16:15:31Z</time>
</trkpt>
<trkpt lat="44.719806720" lon="6.645451780">
  <ele>2216.600000</ele>
<time>2016-06-25T16:15:34Z</time>
</trkpt>
<trkpt lat="44.719766820" lon="6.645341810">
  <ele>2213.500000</ele>
<time>2016-06-25T16:15:41Z</time>
</trkpt>
<trkpt lat="44.719708480" lon="6.645250110">
  <ele>2210.800000</ele>
<time>2016-06-25T16:15:49Z</time>
</trkpt>
<trkpt lat="44.719668420" lon="6.645146680">
  <ele>2209.500000</ele>
<time>2016-06-25T16:15:55Z</time>
</trkpt>
<trkpt lat="44.719636730" lon="6.645043410">
  <ele>2208.500000</ele>
<time>2016-06-25T16:16:01Z</time>
</trkpt>
<trkpt lat="44.719628350" lon="6.645028490">
  <ele>2208.300000</ele>
<time>2016-06-25T16:16:02Z</time>
</trkpt>
<trkpt lat="44.719568340" lon="6.644826820">
  <ele>2206.100000</ele>
<time>2016-06-25T16:16:13Z</time>
</trkpt>
<trkpt lat="44.719545040" lon="6.644713330">
  <ele>2204.300000</ele>
<time>2016-06-25T16:16:20Z</time>
</trkpt>
<trkpt lat="44.719506810" lon="6.644616770">
  <ele>2202.000000</ele>
<time>2016-06-25T16:16:27Z</time>
</trkpt>
<trkpt lat="44.719450150" lon="6.644530110">
  <ele>2200.300000</ele>
<time>2016-06-25T16:16:34Z</time>
</trkpt>
<trkpt lat="44.719400030" lon="6.644446790">
  <ele>2199.100000</ele>
<time>2016-06-25T16:16:40Z</time>
</trkpt>
<trkpt lat="44.719355100" lon="6.644358440">
  <ele>2198.000000</ele>
<time>2016-06-25T16:16:45Z</time>
</trkpt>
<trkpt lat="44.719300120" lon="6.644266750">
  <ele>2197.000000</ele>
<time>2016-06-25T16:16:50Z</time>
</trkpt>
<trkpt lat="44.719261730" lon="6.644161800">
  <ele>2196.500000</ele>
<time>2016-06-25T16:16:55Z</time>
</trkpt>
<trkpt lat="44.719230040" lon="6.644053340">
  <ele>2195.800000</ele>
<time>2016-06-25T16:17:02Z</time>
</trkpt>
<trkpt lat="44.719223340" lon="6.644040100">
  <ele>2195.600000</ele>
<time>2016-06-25T16:17:03Z</time>
</trkpt>
<trkpt lat="44.719140020" lon="6.643848490">
  <ele>2194.800000</ele>
<time>2016-06-25T16:17:14Z</time>
</trkpt>
<trkpt lat="44.719091740" lon="6.643753440">
  <ele>2194.300000</ele>
<time>2016-06-25T16:17:21Z</time>
</trkpt>
<trkpt lat="44.719055030" lon="6.643641790">
  <ele>2193.100000</ele>
<time>2016-06-25T16:17:30Z</time>
</trkpt>
<trkpt lat="44.719013450" lon="6.643535010">
  <ele>2192.500000</ele>
<time>2016-06-25T16:17:37Z</time>
</trkpt>
<trkpt lat="44.718968360" lon="6.643426710">
  <ele>2192.000000</ele>
<time>2016-06-25T16:17:45Z</time>
</trkpt>
<trkpt lat="44.718916730" lon="6.643341720">
  <ele>2191.600000</ele>
<time>2016-06-25T16:17:52Z</time>
</trkpt>
<trkpt lat="44.718873480" lon="6.643240130">
  <ele>2191.300000</ele>
<time>2016-06-25T16:17:57Z</time>
</trkpt>
<trkpt lat="44.718831740" lon="6.643153460">
  <ele>2190.500000</ele>
<time>2016-06-25T16:18:03Z</time>
</trkpt>
<trkpt lat="44.718815140" lon="6.643133340">
  <ele>2190.500000</ele>
<time>2016-06-25T16:18:04Z</time>
</trkpt>
<trkpt lat="44.718788480" lon="6.643343400">
  <ele>2189.100000</ele>
<time>2016-06-25T16:18:15Z</time>
</trkpt>
<trkpt lat="44.718793350" lon="6.643458390">
  <ele>2188.300000</ele>
<time>2016-06-25T16:18:21Z</time>
</trkpt>
<trkpt lat="44.718806760" lon="6.643575070">
  <ele>2187.800000</ele>
<time>2016-06-25T16:18:26Z</time>
</trkpt>
<trkpt lat="44.718820000" lon="6.643685040">
  <ele>2187.300000</ele>
<time>2016-06-25T16:18:31Z</time>
</trkpt>
<trkpt lat="44.718810110" lon="6.643803390">
  <ele>2187.300000</ele>
<time>2016-06-25T16:18:36Z</time>
</trkpt>
<trkpt lat="44.718795020" lon="6.643911690">
  <ele>2187.100000</ele>
<time>2016-06-25T16:18:41Z</time>
</trkpt>
<trkpt lat="44.718791670" lon="6.644023340">
  <ele>2187.000000</ele>
<time>2016-06-25T16:18:46Z</time>
</trkpt>
<trkpt lat="44.718785130" lon="6.644140010">
  <ele>2186.800000</ele>
<time>2016-06-25T16:18:52Z</time>
</trkpt>
<trkpt lat="44.718751770" lon="6.644245120">
  <ele>2186.800000</ele>
<time>2016-06-25T16:18:58Z</time>
</trkpt>
<trkpt lat="44.718736680" lon="6.644353410">
  <ele>2186.100000</ele>
<time>2016-06-25T16:19:04Z</time>
</trkpt>
<trkpt lat="44.718733330" lon="6.644375040">
  <ele>2186.100000</ele>
<time>2016-06-25T16:19:05Z</time>
</trkpt>
<trkpt lat="44.718686730" lon="6.644578380">
  <ele>2185.800000</ele>
<time>2016-06-25T16:19:17Z</time>
</trkpt>
<trkpt lat="44.718683380" lon="6.644698410">
  <ele>2185.000000</ele>
<time>2016-06-25T16:19:23Z</time>
</trkpt>
<trkpt lat="44.718685050" lon="6.644811740">
  <ele>2184.300000</ele>
<time>2016-06-25T16:19:28Z</time>
</trkpt>
<trkpt lat="44.718666780" lon="6.644921710">
  <ele>2183.300000</ele>
<time>2016-06-25T16:19:34Z</time>
</trkpt>
<trkpt lat="44.718651690" lon="6.645033350">
  <ele>2182.300000</ele>
<time>2016-06-25T16:19:39Z</time>
</trkpt>
<trkpt lat="44.718643480" lon="6.645145000">
  <ele>2181.000000</ele>
<time>2016-06-25T16:19:45Z</time>
</trkpt>
<trkpt lat="44.718571730" lon="6.645070070">
  <ele>2178.100000</ele>
<time>2016-06-25T16:19:54Z</time>
</trkpt>
<trkpt lat="44.718540050" lon="6.644963450">
  <ele>2176.600000</ele>
<time>2016-06-25T16:19:58Z</time>
</trkpt>
<trkpt lat="44.718535020" lon="6.644848450">
  <ele>2173.100000</ele>
<time>2016-06-25T16:20:06Z</time>
</trkpt>
<trkpt lat="44.718533340" lon="6.644833360">
  <ele>2172.600000</ele>
<time>2016-06-25T16:20:07Z</time>
</trkpt>
<trkpt lat="44.718443490" lon="6.644661700">
  <ele>2168.800000</ele>
<time>2016-06-25T16:20:17Z</time>
</trkpt>
<trkpt lat="44.718413480" lon="6.644558440">
  <ele>2167.800000</ele>
<time>2016-06-25T16:20:20Z</time>
</trkpt>
<trkpt lat="44.718380120" lon="6.644468410">
  <ele>2166.800000</ele>
<time>2016-06-25T16:20:24Z</time>
</trkpt>
<trkpt lat="44.718361680" lon="6.644363470">
  <ele>2165.600000</ele>
<time>2016-06-25T16:20:29Z</time>
</trkpt>
<trkpt lat="44.718340050" lon="6.644243440">
  <ele>2163.800000</ele>
<time>2016-06-25T16:20:36Z</time>
</trkpt>
<trkpt lat="44.718318430" lon="6.644125090">
  <ele>2161.300000</ele>
<time>2016-06-25T16:20:43Z</time>
</trkpt>
<trkpt lat="44.718311720" lon="6.644010090">
  <ele>2159.000000</ele>
<time>2016-06-25T16:20:49Z</time>
</trkpt>
<trkpt lat="44.718300160" lon="6.643890060">
  <ele>2156.600000</ele>
<time>2016-06-25T16:20:56Z</time>
</trkpt>
<trkpt lat="44.718258410" lon="6.643788470">
  <ele>2155.500000</ele>
<time>2016-06-25T16:21:06Z</time>
</trkpt>
<trkpt lat="44.718215160" lon="6.643690070">
  <ele>2153.800000</ele>
<time>2016-06-25T16:21:13Z</time>
</trkpt>
<trkpt lat="44.718206780" lon="6.643676830">
  <ele>2153.600000</ele>
<time>2016-06-25T16:21:14Z</time>
</trkpt>
<trkpt lat="44.718125140" lon="6.643500140">
  <ele>2151.300000</ele>
<time>2016-06-25T16:21:27Z</time>
</trkpt>
<trkpt lat="44.718086750" lon="6.643413470">
  <ele>2150.300000</ele>
<time>2016-06-25T16:21:32Z</time>
</trkpt>
<trkpt lat="44.718031770" lon="6.643323450">
  <ele>2148.800000</ele>
<time>2016-06-25T16:21:39Z</time>
</trkpt>
<trkpt lat="44.717975100" lon="6.643231750">
  <ele>2147.000000</ele>
<time>2016-06-25T16:21:46Z</time>
</trkpt>
<trkpt lat="44.717953480" lon="6.643150110">
  <ele>2146.100000</ele>
<time>2016-06-25T16:21:50Z</time>
</trkpt>
<trkpt lat="44.717930010" lon="6.643033430">
  <ele>2145.000000</ele>
<time>2016-06-25T16:21:54Z</time>
</trkpt>
<trkpt lat="44.717913410" lon="6.642910050">
  <ele>2143.600000</ele>
<time>2016-06-25T16:22:00Z</time>
</trkpt>
<trkpt lat="44.717910060" lon="6.642791700">
  <ele>2142.600000</ele>
<time>2016-06-25T16:22:06Z</time>
</trkpt>
<trkpt lat="44.717906710" lon="6.642680050">
  <ele>2139.300000</ele>
<time>2016-06-25T16:22:12Z</time>
</trkpt>
<trkpt lat="44.717913410" lon="6.642566730">
  <ele>2136.600000</ele>
<time>2016-06-25T16:22:18Z</time>
</trkpt>
<trkpt lat="44.717918440" lon="6.642548460">
  <ele>2136.100000</ele>
<time>2016-06-25T16:22:19Z</time>
</trkpt>
<trkpt lat="44.717986670" lon="6.642365060">
  <ele>2132.100000</ele>
<time>2016-06-25T16:22:32Z</time>
</trkpt>
<trkpt lat="44.718008460" lon="6.642243350">
  <ele>2132.000000</ele>
<time>2016-06-25T16:22:36Z</time>
</trkpt>
<trkpt lat="44.718026740" lon="6.642123490">
  <ele>2131.100000</ele>
<time>2016-06-25T16:22:40Z</time>
</trkpt>
<trkpt lat="44.718070160" lon="6.642015030">
  <ele>2130.000000</ele>
<time>2016-06-25T16:22:46Z</time>
</trkpt>
<trkpt lat="44.718096810" lon="6.641906740">
  <ele>2128.300000</ele>
<time>2016-06-25T16:22:57Z</time>
</trkpt>
<trkpt lat="44.718118440" lon="6.641793410">
  <ele>2127.100000</ele>
<time>2016-06-25T16:23:04Z</time>
</trkpt>
<trkpt lat="44.718153470" lon="6.641703390">
  <ele>2127.000000</ele>
<time>2016-06-25T16:23:09Z</time>
</trkpt>
<trkpt lat="44.718178450" lon="6.641591750">
  <ele>2127.300000</ele>
<time>2016-06-25T16:23:14Z</time>
</trkpt>
<trkpt lat="44.718186660" lon="6.641480100">
  <ele>2127.300000</ele>
<time>2016-06-25T16:23:19Z</time>
</trkpt>
<trkpt lat="44.718185160" lon="6.641460150">
  <ele>2127.300000</ele>
<time>2016-06-25T16:23:20Z</time>
</trkpt>
<trkpt lat="44.718203430" lon="6.641255130">
  <ele>2126.300000</ele>
<time>2016-06-25T16:23:30Z</time>
</trkpt>
<trkpt lat="44.718208460" lon="6.641153370">
  <ele>2126.600000</ele>
<time>2016-06-25T16:23:35Z</time>
</trkpt>
<trkpt lat="44.718223380" lon="6.641030160">
  <ele>2127.300000</ele>
<time>2016-06-25T16:23:41Z</time>
</trkpt>
<trkpt lat="44.718241820" lon="6.640918340">
  <ele>2125.500000</ele>
<time>2016-06-25T16:23:49Z</time>
</trkpt>
<trkpt lat="44.718238460" lon="6.640798480">
  <ele>2124.100000</ele>
<time>2016-06-25T16:23:56Z</time>
</trkpt>
<trkpt lat="44.718253380" lon="6.640683480">
  <ele>2123.800000</ele>
<time>2016-06-25T16:24:00Z</time>
</trkpt>
<trkpt lat="44.718263440" lon="6.640568480">
  <ele>2123.800000</ele>
<time>2016-06-25T16:24:07Z</time>
</trkpt>
<trkpt lat="44.718248350" lon="6.640455160">
  <ele>2122.300000</ele>
<time>2016-06-25T16:24:13Z</time>
</trkpt>
<trkpt lat="44.718226730" lon="6.640351730">
  <ele>2120.800000</ele>
<time>2016-06-25T16:24:20Z</time>
</trkpt>
<trkpt lat="44.718218350" lon="6.640335130">
  <ele>2120.800000</ele>
<time>2016-06-25T16:24:21Z</time>
</trkpt>
<trkpt lat="44.718158330" lon="6.640161790">
  <ele>2120.100000</ele>
<time>2016-06-25T16:24:29Z</time>
</trkpt>
<trkpt lat="44.718126820" lon="6.640043440">
  <ele>2119.000000</ele>
<time>2016-06-25T16:24:36Z</time>
</trkpt>
<trkpt lat="44.718095130" lon="6.639943360">
  <ele>2117.300000</ele>
<time>2016-06-25T16:24:43Z</time>
</trkpt>
<trkpt lat="44.718063450" lon="6.639828360">
  <ele>2116.100000</ele>
<time>2016-06-25T16:24:48Z</time>
</trkpt>
<trkpt lat="44.718030090" lon="6.639731800">
  <ele>2115.500000</ele>
<time>2016-06-25T16:24:53Z</time>
</trkpt>
<trkpt lat="44.718015000" lon="6.639620150">
  <ele>2113.600000</ele>
<time>2016-06-25T16:25:00Z</time>
</trkpt>
<trkpt lat="44.717973430" lon="6.639513370">
  <ele>2111.000000</ele>
<time>2016-06-25T16:25:07Z</time>
</trkpt>
<trkpt lat="44.717978460" lon="6.639408430">
  <ele>2106.100000</ele>
<time>2016-06-25T16:25:22Z</time>
</trkpt>
<trkpt lat="44.718003440" lon="6.639390150">
  <ele>2105.100000</ele>
<time>2016-06-25T16:25:23Z</time>
</trkpt>
<trkpt lat="44.717995050" lon="6.639288400">
  <ele>2099.800000</ele>
<time>2016-06-25T16:25:39Z</time>
</trkpt>
<trkpt lat="44.717978460" lon="6.639165020">
  <ele>2093.800000</ele>
<time>2016-06-25T16:25:47Z</time>
</trkpt>
<trkpt lat="44.717918440" lon="6.639090080">
  <ele>2090.600000</ele>
<time>2016-06-25T16:25:53Z</time>
</trkpt>
<trkpt lat="44.717830100" lon="6.639101820">
  <ele>2087.300000</ele>
<time>2016-06-25T16:26:00Z</time>
</trkpt>
<trkpt lat="44.717760030" lon="6.639153450">
  <ele>2083.800000</ele>
<time>2016-06-25T16:26:07Z</time>
</trkpt>
<trkpt lat="44.717708390" lon="6.639253360">
  <ele>2080.600000</ele>
<time>2016-06-25T16:26:12Z</time>
</trkpt>
<trkpt lat="44.717710070" lon="6.639375070">
  <ele>2078.300000</ele>
<time>2016-06-25T16:26:18Z</time>
</trkpt>
<trkpt lat="44.717730020" lon="6.639480010">
  <ele>2076.600000</ele>
<time>2016-06-25T16:26:23Z</time>
</trkpt>
<trkpt lat="44.717733370" lon="6.639503480">
  <ele>2076.300000</ele>
<time>2016-06-25T16:26:24Z</time>
</trkpt>
<trkpt lat="44.717756670" lon="6.639713360">
  <ele>2074.300000</ele>
<time>2016-06-25T16:26:33Z</time>
</trkpt>
<trkpt lat="44.717781820" lon="6.639826680">
  <ele>2072.600000</ele>
<time>2016-06-25T16:26:41Z</time>
</trkpt>
<trkpt lat="44.717773440" lon="6.639948390">
  <ele>2070.100000</ele>
<time>2016-06-25T16:26:54Z</time>
</trkpt>
<trkpt lat="44.717763380" lon="6.640070090">
  <ele>2069.800000</ele>
<time>2016-06-25T16:27:03Z</time>
</trkpt>
<trkpt lat="44.717758350" lon="6.640171680">
  <ele>2068.800000</ele>
<time>2016-06-25T16:27:09Z</time>
</trkpt>
<trkpt lat="44.717708390" lon="6.640275120">
  <ele>2067.800000</ele>
<time>2016-06-25T16:27:15Z</time>
</trkpt>
<trkpt lat="44.717708390" lon="6.640400010">
  <ele>2067.300000</ele>
<time>2016-06-25T16:27:21Z</time>
</trkpt>
<trkpt lat="44.717698330" lon="6.640515010">
  <ele>2067.300000</ele>
<time>2016-06-25T16:27:27Z</time>
</trkpt>
<trkpt lat="44.717693470" lon="6.640530090">
  <ele>2067.100000</ele>
<time>2016-06-25T16:27:28Z</time>
</trkpt>
<trkpt lat="44.717641670" lon="6.640725060">
  <ele>2066.000000</ele>
<time>2016-06-25T16:27:40Z</time>
</trkpt>
<trkpt lat="44.717603450" lon="6.640828490">
  <ele>2066.000000</ele>
<time>2016-06-25T16:27:44Z</time>
</trkpt>
<trkpt lat="44.717560030" lon="6.640931750">
  <ele>2066.300000</ele>
<time>2016-06-25T16:27:50Z</time>
</trkpt>
<trkpt lat="44.717518460" lon="6.641026800">
  <ele>2066.800000</ele>
<time>2016-06-25T16:27:56Z</time>
</trkpt>
<trkpt lat="44.717463470" lon="6.641111800">
  <ele>2067.100000</ele>
<time>2016-06-25T16:28:04Z</time>
</trkpt>
<trkpt lat="44.717398430" lon="6.641181700">
  <ele>2067.600000</ele>
<time>2016-06-25T16:28:11Z</time>
</trkpt>
<trkpt lat="44.717351830" lon="6.641270050">
  <ele>2067.800000</ele>
<time>2016-06-25T16:28:15Z</time>
</trkpt>
<trkpt lat="44.717285110" lon="6.641345150">
  <ele>2068.300000</ele>
<time>2016-06-25T16:28:22Z</time>
</trkpt>
<trkpt lat="44.717225090" lon="6.641428470">
  <ele>2069.600000</ele>
<time>2016-06-25T16:28:31Z</time>
</trkpt>
<trkpt lat="44.717215030" lon="6.641440030">
  <ele>2069.600000</ele>
<time>2016-06-25T16:28:32Z</time>
</trkpt>
<trkpt lat="44.717128360" lon="6.641568440">
  <ele>2068.300000</ele>
<time>2016-06-25T16:28:47Z</time>
</trkpt>
<trkpt lat="44.717056780" lon="6.641645050">
  <ele>2067.300000</ele>
<time>2016-06-25T16:28:54Z</time>
</trkpt>
<trkpt lat="44.717001800" lon="6.641725020">
  <ele>2067.300000</ele>
<time>2016-06-25T16:29:19Z</time>
</trkpt>
<trkpt lat="44.716941780" lon="6.641806820">
  <ele>2067.100000</ele>
<time>2016-06-25T16:29:25Z</time>
</trkpt>
<trkpt lat="44.716885120" lon="6.641883440">
  <ele>2067.100000</ele>
<time>2016-06-25T16:29:29Z</time>
</trkpt>
<trkpt lat="44.716803480" lon="6.641903380">
  <ele>2067.000000</ele>
<time>2016-06-25T16:29:35Z</time>
</trkpt>
<trkpt lat="44.716790070" lon="6.641900030">
  <ele>2066.800000</ele>
<time>2016-06-25T16:29:36Z</time>
</trkpt>
<trkpt lat="44.716655120" lon="6.641910090">
  <ele>2065.800000</ele>
<time>2016-06-25T16:29:45Z</time>
</trkpt>
<trkpt lat="44.716573480" lon="6.641956690">
  <ele>2065.100000</ele>
<time>2016-06-25T16:29:52Z</time>
</trkpt>
<trkpt lat="44.716488490" lon="6.641986700">
  <ele>2064.500000</ele>
<time>2016-06-25T16:29:57Z</time>
</trkpt>
<trkpt lat="44.716423450" lon="6.642060130">
  <ele>2063.500000</ele>
<time>2016-06-25T16:30:03Z</time>
</trkpt>
<trkpt lat="44.716365110" lon="6.642130030">
  <ele>2063.100000</ele>
<time>2016-06-25T16:30:08Z</time>
</trkpt>
<trkpt lat="44.716285150" lon="6.642185020">
  <ele>2062.800000</ele>
<time>2016-06-25T16:30:15Z</time>
</trkpt>
<trkpt lat="44.716220100" lon="6.642243350">
  <ele>2062.500000</ele>
<time>2016-06-25T16:30:19Z</time>
</trkpt>
<trkpt lat="44.716133430" lon="6.642271690">
  <ele>2062.100000</ele>
<time>2016-06-25T16:30:26Z</time>
</trkpt>
<trkpt lat="44.716050120" lon="6.642288450">
  <ele>2061.100000</ele>
<time>2016-06-25T16:30:30Z</time>
</trkpt>
<trkpt lat="44.715966800" lon="6.642266820">
  <ele>2060.000000</ele>
<time>2016-06-25T16:30:35Z</time>
</trkpt>
<trkpt lat="44.715883480" lon="6.642235140">
  <ele>2058.800000</ele>
<time>2016-06-25T16:30:41Z</time>
</trkpt>
<trkpt lat="44.715873430" lon="6.642225080">
  <ele>2058.800000</ele>
<time>2016-06-25T16:30:42Z</time>
</trkpt>
<trkpt lat="44.715718360" lon="6.642226760">
  <ele>2057.100000</ele>
<time>2016-06-25T16:30:52Z</time>
</trkpt>
<trkpt lat="44.715635050" lon="6.642226760">
  <ele>2055.800000</ele>
<time>2016-06-25T16:30:57Z</time>
</trkpt>
<trkpt lat="44.715570000" lon="6.642305050">
  <ele>2055.000000</ele>
<time>2016-06-25T16:31:02Z</time>
</trkpt>
<trkpt lat="44.715541670" lon="6.642410150">
  <ele>2054.500000</ele>
<time>2016-06-25T16:31:07Z</time>
</trkpt>
<trkpt lat="44.715543350" lon="6.642531690">
  <ele>2053.000000</ele>
<time>2016-06-25T16:31:12Z</time>
</trkpt>
<trkpt lat="44.715571680" lon="6.642633450">
  <ele>2052.100000</ele>
<time>2016-06-25T16:31:17Z</time>
</trkpt>
<trkpt lat="44.715601690" lon="6.642736710">
  <ele>2050.800000</ele>
<time>2016-06-25T16:31:22Z</time>
</trkpt>
<trkpt lat="44.715620130" lon="6.642856740">
  <ele>2050.100000</ele>
<time>2016-06-25T16:31:29Z</time>
</trkpt>
<trkpt lat="44.715676790" lon="6.642950120">
  <ele>2049.800000</ele>
<time>2016-06-25T16:31:47Z</time>
</trkpt>
<trkpt lat="44.715680140" lon="6.642960010">
  <ele>2049.800000</ele>
<time>2016-06-25T16:31:48Z</time>
</trkpt>
<trkpt lat="44.715721710" lon="6.643175090">
  <ele>2049.100000</ele>
<time>2016-06-25T16:31:57Z</time>
</trkpt>
<trkpt lat="44.715768480" lon="6.643271810">
  <ele>2048.800000</ele>
<time>2016-06-25T16:32:02Z</time>
</trkpt>
<trkpt lat="44.715825150" lon="6.643341720">
  <ele>2048.800000</ele>
<time>2016-06-25T16:32:05Z</time>
</trkpt>
<trkpt lat="44.715886670" lon="6.643410120">
  <ele>2048.800000</ele>
<time>2016-06-25T16:32:11Z</time>
</trkpt>
<trkpt lat="44.715923380" lon="6.643520090">
  <ele>2049.300000</ele>
<time>2016-06-25T16:32:17Z</time>
</trkpt>
<trkpt lat="44.715951710" lon="6.643631730">
  <ele>2049.100000</ele>
<time>2016-06-25T16:32:21Z</time>
</trkpt>
<trkpt lat="44.715991780" lon="6.643728460">
  <ele>2049.100000</ele>
<time>2016-06-25T16:32:27Z</time>
</trkpt>
<trkpt lat="44.716001670" lon="6.643846810">
  <ele>2049.000000</ele>
<time>2016-06-25T16:32:33Z</time>
</trkpt>
<trkpt lat="44.715968480" lon="6.643946720">
  <ele>2048.600000</ele>
<time>2016-06-25T16:32:38Z</time>
</trkpt>
<trkpt lat="44.715961770" lon="6.644063400">
  <ele>2047.600000</ele>
<time>2016-06-25T16:32:46Z</time>
</trkpt>
<trkpt lat="44.715888350" lon="6.644116710">
  <ele>2046.800000</ele>
<time>2016-06-25T16:32:55Z</time>
</trkpt>
<trkpt lat="44.715876780" lon="6.644113360">
  <ele>2046.500000</ele>
<time>2016-06-25T16:32:56Z</time>
</trkpt>
<trkpt lat="44.715775020" lon="6.643998360">
  <ele>2043.400000</ele>
<time>2016-06-25T16:33:09Z</time>
</trkpt>
<trkpt lat="44.715721710" lon="6.643910010">
  <ele>2042.000000</ele>
<time>2016-06-25T16:33:15Z</time>
</trkpt>
<trkpt lat="44.715645100" lon="6.643865080">
  <ele>2040.500000</ele>
<time>2016-06-25T16:33:20Z</time>
</trkpt>
<trkpt lat="44.715571680" lon="6.643821670">
  <ele>2039.300000</ele>
<time>2016-06-25T16:33:25Z</time>
</trkpt>
<trkpt lat="44.715496740" lon="6.643783450">
  <ele>2038.000000</ele>
<time>2016-06-25T16:33:30Z</time>
</trkpt>
<trkpt lat="44.715428350" lon="6.643718400">
  <ele>2036.300000</ele>
<time>2016-06-25T16:33:38Z</time>
</trkpt>
<trkpt lat="44.715393480" lon="6.643613460">
  <ele>2034.500000</ele>
<time>2016-06-25T16:33:45Z</time>
</trkpt>
<trkpt lat="44.715320050" lon="6.643551770">
  <ele>2032.900000</ele>
<time>2016-06-25T16:33:52Z</time>
</trkpt>
<trkpt lat="44.715243440" lon="6.643488400">
  <ele>2031.600000</ele>
<time>2016-06-25T16:33:58Z</time>
</trkpt>
<trkpt lat="44.715230030" lon="6.643483370">
  <ele>2031.500000</ele>
<time>2016-06-25T16:33:59Z</time>
</trkpt>
<trkpt lat="44.715123410" lon="6.643336690">
  <ele>2031.000000</ele>
<time>2016-06-25T16:34:08Z</time>
</trkpt>
<trkpt lat="44.715055020" lon="6.643270140">
  <ele>2031.100000</ele>
<time>2016-06-25T16:34:15Z</time>
</trkpt>
<trkpt lat="44.714980080" lon="6.643238450">
  <ele>2030.500000</ele>
<time>2016-06-25T16:34:21Z</time>
</trkpt>
<trkpt lat="44.714915040" lon="6.643161680">
  <ele>2029.500000</ele>
<time>2016-06-25T16:34:26Z</time>
</trkpt>
<trkpt lat="44.714961810" lon="6.643261760">
  <ele>2021.100000</ele>
<time>2016-06-25T16:34:46Z</time>
</trkpt>
<trkpt lat="44.714995000" lon="6.643345070">
  <ele>2020.800000</ele>
<time>2016-06-25T16:34:51Z</time>
</trkpt>
<trkpt lat="44.715000030" lon="6.643465100">
  <ele>2019.300000</ele>
<time>2016-06-25T16:34:55Z</time>
</trkpt>
<trkpt lat="44.715026690" lon="6.643585130">
  <ele>2017.800000</ele>
<time>2016-06-25T16:35:02Z</time>
</trkpt>
<trkpt lat="44.715025010" lon="6.643608430">
  <ele>2017.500000</ele>
<time>2016-06-25T16:35:03Z</time>
</trkpt>
<trkpt lat="44.715040100" lon="6.643791830">
  <ele>2017.100000</ele>
<time>2016-06-25T16:35:11Z</time>
</trkpt>
<trkpt lat="44.715036740" lon="6.643893420">
  <ele>2016.600000</ele>
<time>2016-06-25T16:35:14Z</time>
</trkpt>
<trkpt lat="44.714971700" lon="6.643975060">
  <ele>2014.300000</ele>
<time>2016-06-25T16:35:23Z</time>
</trkpt>
<trkpt lat="44.714905150" lon="6.644026690">
  <ele>2014.100000</ele>
<time>2016-06-25T16:35:29Z</time>
</trkpt>
<trkpt lat="44.714875140" lon="6.644141690">
  <ele>2012.300000</ele>
<time>2016-06-25T16:35:35Z</time>
</trkpt>
<trkpt lat="44.714865080" lon="6.644266750">
  <ele>2008.000000</ele>
<time>2016-06-25T16:35:44Z</time>
</trkpt>
<trkpt lat="44.714826690" lon="6.644361800">
  <ele>2005.600000</ele>
<time>2016-06-25T16:35:50Z</time>
</trkpt>
<trkpt lat="44.714820160" lon="6.644473440">
  <ele>2001.400000</ele>
<time>2016-06-25T16:35:56Z</time>
</trkpt>
<trkpt lat="44.714825020" lon="6.644586770">
  <ele>1998.000000</ele>
<time>2016-06-25T16:36:02Z</time>
</trkpt>
<trkpt lat="44.714805070" lon="6.644698410">
  <ele>1996.100000</ele>
<time>2016-06-25T16:36:08Z</time>
</trkpt>
<trkpt lat="44.714803390" lon="6.644715010">
  <ele>1996.000000</ele>
<time>2016-06-25T16:36:09Z</time>
</trkpt>
<trkpt lat="44.714736670" lon="6.644901760">
  <ele>1992.500000</ele>
<time>2016-06-25T16:36:20Z</time>
</trkpt>
<trkpt lat="44.714666770" lon="6.644963450">
  <ele>1990.400000</ele>
<time>2016-06-25T16:36:25Z</time>
</trkpt>
<trkpt lat="44.714601720" lon="6.645033350">
  <ele>1987.600000</ele>
<time>2016-06-25T16:36:31Z</time>
</trkpt>
<trkpt lat="44.714548420" lon="6.645121700">
  <ele>1985.300000</ele>
<time>2016-06-25T16:36:37Z</time>
</trkpt>
<trkpt lat="44.714510030" lon="6.645221780">
  <ele>1983.000000</ele>
<time>2016-06-25T16:36:42Z</time>
</trkpt>
<trkpt lat="44.714476670" lon="6.645335100">
  <ele>1981.000000</ele>
<time>2016-06-25T16:36:47Z</time>
</trkpt>
<trkpt lat="44.714426710" lon="6.645421770">
  <ele>1978.500000</ele>
<time>2016-06-25T16:36:53Z</time>
</trkpt>
<trkpt lat="44.714386810" lon="6.645520010">
  <ele>1976.500000</ele>
<time>2016-06-25T16:37:00Z</time>
</trkpt>
<trkpt lat="44.714340040" lon="6.645626790">
  <ele>1973.300000</ele>
<time>2016-06-25T16:37:07Z</time>
</trkpt>
<trkpt lat="44.714306680" lon="6.645741790">
  <ele>1972.400000</ele>
<time>2016-06-25T16:37:14Z</time>
</trkpt>
<trkpt lat="44.714293440" lon="6.645763420">
  <ele>1971.900000</ele>
<time>2016-06-25T16:37:15Z</time>
</trkpt>
<trkpt lat="44.714175090" lon="6.645890150">
  <ele>1969.500000</ele>
<time>2016-06-25T16:37:24Z</time>
</trkpt>
<trkpt lat="44.714121780" lon="6.645991740">
  <ele>1969.000000</ele>
<time>2016-06-25T16:37:30Z</time>
</trkpt>
<trkpt lat="44.714070140" lon="6.646065000">
  <ele>1968.400000</ele>
<time>2016-06-25T16:37:34Z</time>
</trkpt>
<trkpt lat="44.714021700" lon="6.646145130">
  <ele>1967.900000</ele>
<time>2016-06-25T16:37:38Z</time>
</trkpt>
<trkpt lat="44.713968390" lon="6.646233480">
  <ele>1967.400000</ele>
<time>2016-06-25T16:37:44Z</time>
</trkpt>
<trkpt lat="44.713906700" lon="6.646313440">
  <ele>1967.300000</ele>
<time>2016-06-25T16:37:49Z</time>
</trkpt>
<trkpt lat="44.713835120" lon="6.646380160">
  <ele>1967.100000</ele>
<time>2016-06-25T16:37:54Z</time>
</trkpt>
<trkpt lat="44.713775100" lon="6.646468340">
  <ele>1967.100000</ele>
<time>2016-06-25T16:38:00Z</time>
</trkpt>
<trkpt lat="44.713738390" lon="6.646565060">
  <ele>1967.100000</ele>
<time>2016-06-25T16:38:05Z</time>
</trkpt>
<trkpt lat="44.713678370" lon="6.646646700">
  <ele>1967.000000</ele>
<time>2016-06-25T16:38:12Z</time>
</trkpt>
<trkpt lat="44.713650040" lon="6.646746780">
  <ele>1967.000000</ele>
<time>2016-06-25T16:38:18Z</time>
</trkpt>
<trkpt lat="44.713640150" lon="6.646765060">
  <ele>1967.000000</ele>
<time>2016-06-25T16:38:19Z</time>
</trkpt>
<trkpt lat="44.713541750" lon="6.646915090">
  <ele>1966.000000</ele>
<time>2016-06-25T16:38:27Z</time>
</trkpt>
<trkpt lat="44.713501680" lon="6.647023390">
  <ele>1965.100000</ele>
<time>2016-06-25T16:38:34Z</time>
</trkpt>
<trkpt lat="44.713443350" lon="6.647110050">
  <ele>1964.000000</ele>
<time>2016-06-25T16:38:40Z</time>
</trkpt>
<trkpt lat="44.713391710" lon="6.647196720">
  <ele>1964.400000</ele>
<time>2016-06-25T16:38:47Z</time>
</trkpt>
<trkpt lat="44.713331700" lon="6.647271830">
  <ele>1964.400000</ele>
<time>2016-06-25T16:38:51Z</time>
</trkpt>
<trkpt lat="44.713258440" lon="6.647288420">
  <ele>1963.600000</ele>
<time>2016-06-25T16:38:56Z</time>
</trkpt>
<trkpt lat="44.713180150" lon="6.647325130">
  <ele>1962.800000</ele>
<time>2016-06-25T16:39:01Z</time>
</trkpt>
<trkpt lat="44.713138410" lon="6.647431750">
  <ele>1962.100000</ele>
<time>2016-06-25T16:39:07Z</time>
</trkpt>
<trkpt lat="44.713060120" lon="6.647441810">
  <ele>1962.800000</ele>
<time>2016-06-25T16:39:14Z</time>
</trkpt>
<trkpt lat="44.712996760" lon="6.647376770">
  <ele>1962.100000</ele>
<time>2016-06-25T16:39:18Z</time>
</trkpt>
<trkpt lat="44.712930040" lon="6.647315080">
  <ele>1961.000000</ele>
<time>2016-06-25T16:39:22Z</time>
</trkpt>
<trkpt lat="44.712916790" lon="6.647306690">
  <ele>1960.900000</ele>
<time>2016-06-25T16:39:23Z</time>
</trkpt>
<trkpt lat="44.712761730" lon="6.647280040">
  <ele>1960.100000</ele>
<time>2016-06-25T16:39:33Z</time>
</trkpt>
<trkpt lat="44.712793410" lon="6.647178450">
  <ele>1954.000000</ele>
<time>2016-06-25T16:39:50Z</time>
</trkpt>
<trkpt lat="44.712843370" lon="6.647073340">
  <ele>1951.100000</ele>
<time>2016-06-25T16:39:58Z</time>
</trkpt>
<trkpt lat="44.712878400" lon="6.646960020">
  <ele>1947.500000</ele>
<time>2016-06-25T16:40:15Z</time>
</trkpt>
<trkpt lat="44.712881760" lon="6.646835130">
  <ele>1944.000000</ele>
<time>2016-06-25T16:40:27Z</time>
</trkpt>
<trkpt lat="44.712881760" lon="6.646816690">
  <ele>1943.800000</ele>
<time>2016-06-25T16:40:28Z</time>
</trkpt>
<trkpt lat="44.712868350" lon="6.646705040">
  <ele>1937.500000</ele>
<time>2016-06-25T16:40:48Z</time>
</trkpt>
<trkpt lat="44.712858460" lon="6.646585010">
  <ele>1934.900000</ele>
<time>2016-06-25T16:40:58Z</time>
</trkpt>
<trkpt lat="44.712778490" lon="6.646555010">
  <ele>1932.800000</ele>
<time>2016-06-25T16:41:05Z</time>
</trkpt>
<trkpt lat="44.712725020" lon="6.646453420">
  <ele>1926.500000</ele>
<time>2016-06-25T16:41:23Z</time>
</trkpt>
<trkpt lat="44.712725020" lon="6.646328360">
  <ele>1918.800000</ele>
<time>2016-06-25T16:41:44Z</time>
</trkpt>
<trkpt lat="44.712721660" lon="6.646325010">
  <ele>1918.500000</ele>
<time>2016-06-25T16:41:45Z</time>
</trkpt>
<trkpt lat="44.712636670" lon="6.646123340">
  <ele>1912.000000</ele>
<time>2016-06-25T16:42:20Z</time>
</trkpt>
<trkpt lat="44.712591740" lon="6.646026780">
  <ele>1909.800000</ele>
<time>2016-06-25T16:42:27Z</time>
</trkpt>
<trkpt lat="44.712523350" lon="6.645958380">
  <ele>1907.500000</ele>
<time>2016-06-25T16:42:37Z</time>
</trkpt>
<trkpt lat="44.712480100" lon="6.645861820">
  <ele>1904.400000</ele>
<time>2016-06-25T16:42:47Z</time>
</trkpt>
<trkpt lat="44.712478420" lon="6.645846730">
  <ele>1904.100000</ele>
<time>2016-06-25T16:42:48Z</time>
</trkpt>
<trkpt lat="44.712328380" lon="6.645761740">
  <ele>1900.300000</ele>
<time>2016-06-25T16:43:03Z</time>
</trkpt>
<trkpt lat="44.712351690" lon="6.645641710">
  <ele>1895.900000</ele>
<time>2016-06-25T16:43:13Z</time>
</trkpt>
<trkpt lat="44.712428460" lon="6.645591760">
  <ele>1893.500000</ele>
<time>2016-06-25T16:43:19Z</time>
</trkpt>
<trkpt lat="44.712390080" lon="6.645488490">
  <ele>1890.900000</ele>
<time>2016-06-25T16:43:30Z</time>
</trkpt>
<trkpt lat="44.712301730" lon="6.645483460">
  <ele>1888.300000</ele>
<time>2016-06-25T16:43:40Z</time>
</trkpt>
<trkpt lat="44.712220090" lon="6.645448430">
  <ele>1886.600000</ele>
<time>2016-06-25T16:43:50Z</time>
</trkpt>
<trkpt lat="44.712205000" lon="6.645458480">
  <ele>1886.400000</ele>
<time>2016-06-25T16:43:51Z</time>
</trkpt>
<trkpt lat="44.712131740" lon="6.645238380">
  <ele>1877.400000</ele>
<time>2016-06-25T16:44:17Z</time>
</trkpt>
<trkpt lat="44.712126720" lon="6.645115160">
  <ele>1873.800000</ele>
<time>2016-06-25T16:44:26Z</time>
</trkpt>
<trkpt lat="44.712071730" lon="6.645206690">
  <ele>1871.300000</ele>
<time>2016-06-25T16:44:35Z</time>
</trkpt>
<trkpt lat="44.712095030" lon="6.645306770">
  <ele>1870.000000</ele>
<time>2016-06-25T16:44:39Z</time>
</trkpt>
<trkpt lat="44.712103410" lon="6.645428480">
  <ele>1868.500000</ele>
<time>2016-06-25T16:44:43Z</time>
</trkpt>
<trkpt lat="44.712110120" lon="6.645546660">
  <ele>1867.100000</ele>
<time>2016-06-25T16:44:49Z</time>
</trkpt>
<trkpt lat="44.712088490" lon="6.645655120">
  <ele>1865.300000</ele>
<time>2016-06-25T16:44:58Z</time>
</trkpt>
<trkpt lat="44.712078440" lon="6.645678430">
  <ele>1865.000000</ele>
<time>2016-06-25T16:44:59Z</time>
</trkpt>
<trkpt lat="44.712020100" lon="6.645873390">
  <ele>1862.900000</ele>
<time>2016-06-25T16:45:08Z</time>
</trkpt>
<trkpt lat="44.711976680" lon="6.645973470">
  <ele>1861.400000</ele>
<time>2016-06-25T16:45:13Z</time>
</trkpt>
<trkpt lat="44.711946670" lon="6.646086790">
  <ele>1859.600000</ele>
<time>2016-06-25T16:45:18Z</time>
</trkpt>
<trkpt lat="44.711930080" lon="6.645980010">
  <ele>1857.000000</ele>
<time>2016-06-25T16:45:25Z</time>
</trkpt>
<trkpt lat="44.711921690" lon="6.645865010">
  <ele>1854.500000</ele>
<time>2016-06-25T16:45:31Z</time>
</trkpt>
<trkpt lat="44.711896720" lon="6.645743470">
  <ele>1852.500000</ele>
<time>2016-06-25T16:45:38Z</time>
</trkpt>
<trkpt lat="44.711873410" lon="6.645623440">
  <ele>1850.400000</ele>
<time>2016-06-25T16:45:45Z</time>
</trkpt>
<trkpt lat="44.711868390" lon="6.645498380">
  <ele>1847.500000</ele>
<time>2016-06-25T16:45:54Z</time>
</trkpt>
<trkpt lat="44.711853470" lon="6.645375000">
  <ele>1844.500000</ele>
<time>2016-06-25T16:46:03Z</time>
</trkpt>
<trkpt lat="44.711846760" lon="6.645361760">
  <ele>1844.300000</ele>
<time>2016-06-25T16:46:04Z</time>
</trkpt>
<trkpt lat="44.711820110" lon="6.645150030">
  <ele>1840.300000</ele>
<time>2016-06-25T16:46:17Z</time>
</trkpt>
<trkpt lat="44.711783390" lon="6.645046770">
  <ele>1834.900000</ele>
<time>2016-06-25T16:46:28Z</time>
</trkpt>
<trkpt lat="44.711800160" lon="6.644923380">
  <ele>1830.400000</ele>
<time>2016-06-25T16:46:40Z</time>
</trkpt>
<trkpt lat="44.711786750" lon="6.644813410">
  <ele>1828.500000</ele>
<time>2016-06-25T16:46:47Z</time>
</trkpt>
<trkpt lat="44.711785070" lon="6.644698410">
  <ele>1826.800000</ele>
<time>2016-06-25T16:46:53Z</time>
</trkpt>
<trkpt lat="44.711705110" lon="6.644751720">
  <ele>1820.500000</ele>
<time>2016-06-25T16:47:18Z</time>
</trkpt>
<trkpt lat="44.711698400" lon="6.644758430">
  <ele>1820.300000</ele>
<time>2016-06-25T16:47:19Z</time>
</trkpt>
<trkpt lat="44.711610060" lon="6.644951710">
  <ele>1816.100000</ele>
<time>2016-06-25T16:47:35Z</time>
</trkpt>
<trkpt lat="44.711573340" lon="6.645061690">
  <ele>1814.500000</ele>
<time>2016-06-25T16:47:42Z</time>
</trkpt>
<trkpt lat="44.711561780" lon="6.645171820">
  <ele>1813.500000</ele>
<time>2016-06-25T16:47:47Z</time>
</trkpt>
<trkpt lat="44.711528420" lon="6.645275090">
  <ele>1811.000000</ele>
<time>2016-06-25T16:47:57Z</time>
</trkpt>
<trkpt lat="44.711485000" lon="6.645381710">
  <ele>1809.500000</ele>
<time>2016-06-25T16:48:03Z</time>
</trkpt>
<trkpt lat="44.711460020" lon="6.645483460">
  <ele>1807.900000</ele>
<time>2016-06-25T16:48:09Z</time>
</trkpt>
<trkpt lat="44.711416770" lon="6.645593430">
  <ele>1806.100000</ele>
<time>2016-06-25T16:48:16Z</time>
</trkpt>
<trkpt lat="44.711335130" lon="6.645573480">
  <ele>1804.500000</ele>
<time>2016-06-25T16:48:30Z</time>
</trkpt>
<trkpt lat="44.711308470" lon="6.645573480">
  <ele>1804.500000</ele>
<time>2016-06-25T16:48:31Z</time>
</trkpt>
<trkpt lat="44.711183420" lon="6.645526710">
  <ele>1803.500000</ele>
<time>2016-06-25T16:48:40Z</time>
</trkpt>
<trkpt lat="44.711096750" lon="6.645536770">
  <ele>1802.000000</ele>
<time>2016-06-25T16:48:47Z</time>
</trkpt>
<trkpt lat="44.711018460" lon="6.645598460">
  <ele>1799.500000</ele>
<time>2016-06-25T16:48:55Z</time>
</trkpt>
<trkpt lat="44.710973370" lon="6.645696700">
  <ele>1797.800000</ele>
<time>2016-06-25T16:49:02Z</time>
</trkpt>
<trkpt lat="44.710968340" lon="6.645816730">
  <ele>1796.500000</ele>
<time>2016-06-25T16:49:28Z</time>
</trkpt>
<trkpt lat="44.710930120" lon="6.645715140">
  <ele>1796.500000</ele>
<time>2016-06-25T16:49:46Z</time>
</trkpt>
<trkpt lat="44.710923410" lon="6.645706760">
  <ele>1796.400000</ele>
<time>2016-06-25T16:49:47Z</time>
</trkpt>
<trkpt lat="44.710768340" lon="6.645686810">
  <ele>1797.500000</ele>
<time>2016-06-25T16:50:16Z</time>
</trkpt>
<trkpt lat="44.710681680" lon="6.645676750">
  <ele>1798.800000</ele>
<time>2016-06-25T16:50:31Z</time>
</trkpt>
<trkpt lat="44.710610090" lon="6.645618410">
  <ele>1799.500000</ele>
<time>2016-06-25T16:50:38Z</time>
</trkpt>
<trkpt lat="44.710523430" lon="6.645608350">
  <ele>1800.100000</ele>
<time>2016-06-25T16:50:45Z</time>
</trkpt>
<trkpt lat="44.710455030" lon="6.645663340">
  <ele>1800.000000</ele>
<time>2016-06-25T16:50:53Z</time>
</trkpt>
<trkpt lat="44.710443460" lon="6.645670040">
  <ele>1800.000000</ele>
<time>2016-06-25T16:50:54Z</time>
</trkpt>
<trkpt lat="44.710378420" lon="6.645566780">
  <ele>1800.500000</ele>
<time>2016-06-25T16:51:20Z</time>
</trkpt>
<trkpt lat="44.710306670" lon="6.645513470">
  <ele>1799.000000</ele>
<time>2016-06-25T16:51:44Z</time>
</trkpt>
<trkpt lat="44.710221680" lon="6.645543480">
  <ele>1798.100000</ele>
<time>2016-06-25T16:51:51Z</time>
</trkpt>
<trkpt lat="44.710141710" lon="6.645578350">
  <ele>1797.600000</ele>
<time>2016-06-25T16:51:58Z</time>
</trkpt>
<trkpt lat="44.710135010" lon="6.645586730">
  <ele>1797.600000</ele>
<time>2016-06-25T16:51:59Z</time>
</trkpt>
<trkpt lat="44.709995030" lon="6.645690160">
  <ele>1796.400000</ele>
<time>2016-06-25T16:52:11Z</time>
</trkpt>
<trkpt lat="44.709973400" lon="6.645568460">
  <ele>1792.400000</ele>
<time>2016-06-25T16:52:32Z</time>
</trkpt>
<trkpt lat="44.710033420" lon="6.645481790">
  <ele>1791.400000</ele>
<time>2016-06-25T16:52:38Z</time>
</trkpt>
<trkpt lat="44.710075160" lon="6.645371820">
  <ele>1791.000000</ele>
<time>2016-06-25T16:52:44Z</time>
</trkpt>
<trkpt lat="44.710113380" lon="6.645275090">
  <ele>1790.600000</ele>
<time>2016-06-25T16:52:50Z</time>
</trkpt>
<trkpt lat="44.710115060" lon="6.645153380">
  <ele>1790.300000</ele>
<time>2016-06-25T16:52:58Z</time>
</trkpt>
<trkpt lat="44.710035100" lon="6.645170150">
  <ele>1789.600000</ele>
<time>2016-06-25T16:53:03Z</time>
</trkpt>
<trkpt lat="44.710021680" lon="6.645178360">
  <ele>1789.500000</ele>
<time>2016-06-25T16:53:04Z</time>
</trkpt>
<trkpt lat="44.709876680" lon="6.645233350">
  <ele>1788.400000</ele>
<time>2016-06-25T16:53:16Z</time>
</trkpt>
<trkpt lat="44.709943400" lon="6.645151710">
  <ele>1785.900000</ele>
<time>2016-06-25T16:53:26Z</time>
</trkpt>
<trkpt lat="44.710000060" lon="6.645068390">
  <ele>1783.900000</ele>
<time>2016-06-25T16:53:33Z</time>
</trkpt>
<trkpt lat="44.710046660" lon="6.644981720">
  <ele>1783.100000</ele>
<time>2016-06-25T16:53:39Z</time>
</trkpt>
<trkpt lat="44.709986820" lon="6.644938470">
  <ele>1781.000000</ele>
<time>2016-06-25T16:53:51Z</time>
</trkpt>
<trkpt lat="44.709901820" lon="6.644936800">
  <ele>1779.500000</ele>
<time>2016-06-25T16:53:56Z</time>
</trkpt>
<trkpt lat="44.709943400" lon="6.644833360">
  <ele>1777.500000</ele>
<time>2016-06-25T16:54:05Z</time>
</trkpt>
<trkpt lat="44.709950100" lon="6.644821800">
  <ele>1777.500000</ele>
<time>2016-06-25T16:54:06Z</time>
</trkpt>
<trkpt lat="44.710065100" lon="6.644740160">
  <ele>1775.600000</ele>
<time>2016-06-25T16:54:16Z</time>
</trkpt>
<trkpt lat="44.710140040" lon="6.644695060">
  <ele>1776.000000</ele>
<time>2016-06-25T16:54:23Z</time>
</trkpt>
<trkpt lat="44.710206760" lon="6.644626660">
  <ele>1776.900000</ele>
<time>2016-06-25T16:54:29Z</time>
</trkpt>
<trkpt lat="44.710275150" lon="6.644566820">
  <ele>1777.400000</ele>
<time>2016-06-25T16:54:35Z</time>
</trkpt>
<trkpt lat="44.710230060" lon="6.644651810">
  <ele>1775.500000</ele>
<time>2016-06-25T16:54:54Z</time>
</trkpt>
<trkpt lat="44.710233410" lon="6.644536810">
  <ele>1775.300000</ele>
<time>2016-06-25T16:55:02Z</time>
</trkpt>
<trkpt lat="44.710161660" lon="6.644590120">
  <ele>1770.000000</ele>
<time>2016-06-25T16:55:20Z</time>
</trkpt>
<trkpt lat="44.710148420" lon="6.644593470">
  <ele>1770.000000</ele>
<time>2016-06-25T16:55:21Z</time>
</trkpt>
<trkpt lat="44.710068460" lon="6.644480150">
  <ele>1762.000000</ele>
<time>2016-06-25T16:55:45Z</time>
</trkpt>
<trkpt lat="44.709993350" lon="6.644465060">
  <ele>1757.500000</ele>
<time>2016-06-25T16:56:02Z</time>
</trkpt>
<trkpt lat="44.709908360" lon="6.644466740">
  <ele>1755.100000</ele>
<time>2016-06-25T16:56:08Z</time>
</trkpt>
<trkpt lat="44.709946750" lon="6.644366830">
  <ele>1752.300000</ele>
<time>2016-06-25T16:56:14Z</time>
</trkpt>
<trkpt lat="44.709870140" lon="6.644376720">
  <ele>1745.100000</ele>
<time>2016-06-25T16:56:31Z</time>
</trkpt>
<trkpt lat="44.709855050" lon="6.644368330">
  <ele>1744.800000</ele>
<time>2016-06-25T16:56:32Z</time>
</trkpt>
<trkpt lat="44.709695130" lon="6.644353410">
  <ele>1739.400000</ele>
<time>2016-06-25T16:56:45Z</time>
</trkpt>
<trkpt lat="44.709610130" lon="6.644370010">
  <ele>1736.100000</ele>
<time>2016-06-25T16:56:53Z</time>
</trkpt>
<trkpt lat="44.709653380" lon="6.644263390">
  <ele>1732.400000</ele>
<time>2016-06-25T16:57:00Z</time>
</trkpt>
<trkpt lat="44.709721780" lon="6.644201700">
  <ele>1729.500000</ele>
<time>2016-06-25T16:57:06Z</time>
</trkpt>
<trkpt lat="44.709745080" lon="6.644090060">
  <ele>1726.300000</ele>
<time>2016-06-25T16:57:12Z</time>
</trkpt>
<trkpt lat="44.709661770" lon="6.644108500">
  <ele>1720.000000</ele>
<time>2016-06-25T16:57:23Z</time>
</trkpt>
<trkpt lat="44.709578450" lon="6.644111680">
  <ele>1716.900000</ele>
<time>2016-06-25T16:57:30Z</time>
</trkpt>
<trkpt lat="44.709521790" lon="6.644018470">
  <ele>1707.000000</ele>
<time>2016-06-25T16:57:50Z</time>
</trkpt>
<trkpt lat="44.709523460" lon="6.643991820">
  <ele>1705.600000</ele>
<time>2016-06-25T16:57:51Z</time>
</trkpt>
<trkpt lat="44.709570070" lon="6.643801720">
  <ele>1698.000000</ele>
<time>2016-06-25T16:58:02Z</time>
</trkpt>
<trkpt lat="44.709610130" lon="6.643695100">
  <ele>1692.100000</ele>
<time>2016-06-25T16:58:10Z</time>
</trkpt>
<trkpt lat="44.709526820" lon="6.643731810">
  <ele>1686.400000</ele>
<time>2016-06-25T16:58:25Z</time>
</trkpt>
<trkpt lat="44.709455070" lon="6.643771710">
  <ele>1685.300000</ele>
<time>2016-06-25T16:58:31Z</time>
</trkpt>
<trkpt lat="44.709426740" lon="6.643875140">
  <ele>1684.000000</ele>
<time>2016-06-25T16:58:36Z</time>
</trkpt>
<trkpt lat="44.709410140" lon="6.643988470">
  <ele>1682.300000</ele>
<time>2016-06-25T16:58:41Z</time>
</trkpt>
<trkpt lat="44.709400080" lon="6.644096760">
  <ele>1680.500000</ele>
<time>2016-06-25T16:58:46Z</time>
</trkpt>
<trkpt lat="44.709386670" lon="6.644203380">
  <ele>1679.400000</ele>
<time>2016-06-25T16:58:51Z</time>
</trkpt>
<trkpt lat="44.709375100" lon="6.644226680">
  <ele>1679.300000</ele>
<time>2016-06-25T16:58:52Z</time>
</trkpt>
<trkpt lat="44.709251720" lon="6.644323410">
  <ele>1677.800000</ele>
<time>2016-06-25T16:59:32Z</time>
</trkpt>
<trkpt lat="44.709225070" lon="6.644213440">
  <ele>1676.800000</ele>
<time>2016-06-25T16:59:43Z</time>
</trkpt>
<trkpt lat="44.709188360" lon="6.644103470">
  <ele>1676.000000</ele>
<time>2016-06-25T16:59:53Z</time>
</trkpt>
<trkpt lat="44.709176790" lon="6.644091730">
  <ele>1676.000000</ele>
<time>2016-06-25T16:59:54Z</time>
</trkpt>
<trkpt lat="44.709055080" lon="6.643936670">
  <ele>1673.900000</ele>
<time>2016-06-25T17:00:12Z</time>
</trkpt>
<trkpt lat="44.708986690" lon="6.643878500">
  <ele>1672.900000</ele>
<time>2016-06-25T17:00:17Z</time>
</trkpt>
<trkpt lat="44.708948470" lon="6.643771710">
  <ele>1671.300000</ele>
<time>2016-06-25T17:00:24Z</time>
</trkpt>
<trkpt lat="44.708921810" lon="6.643651680">
  <ele>1668.500000</ele>
<time>2016-06-25T17:00:31Z</time>
</trkpt>
<trkpt lat="44.708878390" lon="6.643548420">
  <ele>1665.500000</ele>
<time>2016-06-25T17:00:40Z</time>
</trkpt>
<trkpt lat="44.708836820" lon="6.643456720">
  <ele>1664.400000</ele>
<time>2016-06-25T17:00:46Z</time>
</trkpt>
<trkpt lat="44.708770100" lon="6.643380110">
  <ele>1663.600000</ele>
<time>2016-06-25T17:00:53Z</time>
</trkpt>
<trkpt lat="44.708698350" lon="6.643321770">
  <ele>1663.000000</ele>
<time>2016-06-25T17:01:00Z</time>
</trkpt>
<trkpt lat="44.708683430" lon="6.643310040">
  <ele>1662.900000</ele>
<time>2016-06-25T17:01:01Z</time>
</trkpt>
<trkpt lat="44.708556700" lon="6.643225040">
  <ele>1662.100000</ele>
<time>2016-06-25T17:01:11Z</time>
</trkpt>
<trkpt lat="44.708475060" lon="6.643211800">
  <ele>1661.500000</ele>
<time>2016-06-25T17:01:16Z</time>
</trkpt>
<trkpt lat="44.708406830" lon="6.643156810">
  <ele>1661.000000</ele>
<time>2016-06-25T17:01:21Z</time>
</trkpt>
<trkpt lat="44.708336750" lon="6.643098480">
  <ele>1660.800000</ele>
<time>2016-06-25T17:01:27Z</time>
</trkpt>
<trkpt lat="44.708265010" lon="6.643028400">
  <ele>1660.900000</ele>
<time>2016-06-25T17:01:34Z</time>
</trkpt>
<trkpt lat="44.708211700" lon="6.642940060">
  <ele>1660.400000</ele>
<time>2016-06-25T17:01:40Z</time>
</trkpt>
<trkpt lat="44.708186720" lon="6.642826730">
  <ele>1660.300000</ele>
<time>2016-06-25T17:01:46Z</time>
</trkpt>
<trkpt lat="44.708143470" lon="6.642725150">
  <ele>1659.500000</ele>
<time>2016-06-25T17:01:53Z</time>
</trkpt>
<trkpt lat="44.708193420" lon="6.642813490">
  <ele>1656.800000</ele>
<time>2016-06-25T17:02:03Z</time>
</trkpt>
<trkpt lat="44.708196780" lon="6.642830090">
  <ele>1656.500000</ele>
<time>2016-06-25T17:02:04Z</time>
</trkpt>
<trkpt lat="44.708080100" lon="6.642645020">
  <ele>1655.600000</ele>
<time>2016-06-25T17:02:28Z</time>
</trkpt>
<trkpt lat="44.708006680" lon="6.642586680">
  <ele>1655.600000</ele>
<time>2016-06-25T17:02:34Z</time>
</trkpt>
<trkpt lat="44.707935090" lon="6.642518450">
  <ele>1653.900000</ele>
<time>2016-06-25T17:02:40Z</time>
</trkpt>
<trkpt lat="44.707865020" lon="6.642461790">
  <ele>1653.500000</ele>
<time>2016-06-25T17:02:46Z</time>
</trkpt>
<trkpt lat="44.707791760" lon="6.642420040">
  <ele>1654.000000</ele>
<time>2016-06-25T17:02:52Z</time>
</trkpt>
<trkpt lat="44.707721690" lon="6.642375120">
  <ele>1654.800000</ele>
<time>2016-06-25T17:02:58Z</time>
</trkpt>
<trkpt lat="44.707655140" lon="6.642306720">
  <ele>1655.500000</ele>
<time>2016-06-25T17:03:05Z</time>
</trkpt>
<trkpt lat="44.707646760" lon="6.642301690">
  <ele>1655.500000</ele>
<time>2016-06-25T17:03:06Z</time>
</trkpt>
<trkpt lat="44.707521700" lon="6.642160040">
  <ele>1656.000000</ele>
<time>2016-06-25T17:03:17Z</time>
</trkpt>
<trkpt lat="44.707460010" lon="6.642075050">
  <ele>1654.300000</ele>
<time>2016-06-25T17:03:27Z</time>
</trkpt>
<trkpt lat="44.707395130" lon="6.641991730">
  <ele>1653.000000</ele>
<time>2016-06-25T17:03:35Z</time>
</trkpt>
<trkpt lat="44.707473420" lon="6.641941770">
  <ele>1648.000000</ele>
<time>2016-06-25T17:03:52Z</time>
</trkpt>
<trkpt lat="44.707551710" lon="6.641956690">
  <ele>1646.500000</ele>
<time>2016-06-25T17:03:57Z</time>
</trkpt>
<trkpt lat="44.707501750" lon="6.641851750">
  <ele>1640.500000</ele>
<time>2016-06-25T17:04:15Z</time>
</trkpt>
<trkpt lat="44.707491690" lon="6.641843370">
  <ele>1640.300000</ele>
<time>2016-06-25T17:04:16Z</time>
</trkpt>
<trkpt lat="44.707345010" lon="6.641736750">
  <ele>1636.400000</ele>
<time>2016-06-25T17:04:32Z</time>
</trkpt>
<trkpt lat="44.707331760" lon="6.641620080">
  <ele>1631.900000</ele>
<time>2016-06-25T17:04:49Z</time>
</trkpt>
<trkpt lat="44.707411730" lon="6.641600130">
  <ele>1629.600000</ele>
<time>2016-06-25T17:04:57Z</time>
</trkpt>
<trkpt lat="44.707490010" lon="6.641610020">
  <ele>1628.000000</ele>
<time>2016-06-25T17:05:03Z</time>
</trkpt>
<trkpt lat="44.707575010" lon="6.641635000">
  <ele>1626.900000</ele>
<time>2016-06-25T17:05:07Z</time>
</trkpt>
<trkpt lat="44.707658490" lon="6.641635000">
  <ele>1625.000000</ele>
<time>2016-06-25T17:05:14Z</time>
</trkpt>
<trkpt lat="44.707635020" lon="6.641516810">
  <ele>1623.000000</ele>
<time>2016-06-25T17:05:23Z</time>
</trkpt>
<trkpt lat="44.707630160" lon="6.641506750">
  <ele>1622.500000</ele>
<time>2016-06-25T17:05:24Z</time>
</trkpt>
<trkpt lat="44.707513480" lon="6.641371800">
  <ele>1619.800000</ele>
<time>2016-06-25T17:05:36Z</time>
</trkpt>
<trkpt lat="44.707455150" lon="6.641278430">
  <ele>1618.500000</ele>
<time>2016-06-25T17:05:44Z</time>
</trkpt>
<trkpt lat="44.707388430" lon="6.641210030">
  <ele>1616.500000</ele>
<time>2016-06-25T17:05:53Z</time>
</trkpt>
<trkpt lat="44.707321710" lon="6.641138450">
  <ele>1614.500000</ele>
<time>2016-06-25T17:06:00Z</time>
</trkpt>
<trkpt lat="44.707268400" lon="6.641048430">
  <ele>1611.600000</ele>
<time>2016-06-25T17:06:08Z</time>
</trkpt>
<trkpt lat="44.707200000" lon="6.640978360">
  <ele>1608.100000</ele>
<time>2016-06-25T17:06:17Z</time>
</trkpt>
<trkpt lat="44.707126740" lon="6.640933430">
  <ele>1606.000000</ele>
<time>2016-06-25T17:06:24Z</time>
</trkpt>
<trkpt lat="44.707110150" lon="6.640815080">
  <ele>1601.600000</ele>
<time>2016-06-25T17:06:33Z</time>
</trkpt>
<trkpt lat="44.707116680" lon="6.640805020">
  <ele>1601.300000</ele>
<time>2016-06-25T17:06:34Z</time>
</trkpt>
<trkpt lat="44.707080140" lon="6.640748360">
  <ele>1593.800000</ele>
<time>2016-06-25T17:07:49Z</time>
</trkpt>
<trkpt lat="44.707080140" lon="6.640748360">
  <ele>1593.800000</ele>
<time>2016-06-25T17:07:50Z</time>
</trkpt>
<trkpt lat="44.707080140" lon="6.640748360">
  <ele>1593.800000</ele>
<time>2016-06-25T17:07:50Z</time>
</trkpt>
<trkpt lat="44.707080140" lon="6.640748360">
  <ele>1593.800000</ele>
<time>2016-06-25T17:07:52Z</time>
</trkpt>
</trkseg>
</trk>
</gpx>
